Wetterdaten: Montag, 20.04.2015
Datum Zeit Temp. Aussen +5cm Feuchte Auss Luftdruck Regen Sonnenschein Regendauer Solar Windben
20.04.2015 00:00 7,8 C 5,0 C 75 % 1023,3 hPa 0,0 l/m 0 min 0 min 0 W/m 4,2 km/h (1 Bft)
20.04.2015 00:02 7,8 C 5,0 C 75 % 1023,3 hPa 0,0 l/m 0 min 0 min 0 W/m 6,3 km/h (2 Bft)
20.04.2015 00:06 7,7 C 4,4 C 75 % 1023,3 hPa 0,0 l/m 0 min 0 min 0 W/m 8,4 km/h (2 Bft)
20.04.2015 00:08 7,7 C 4,4 C 75 % 1023,3 hPa 0,0 l/m 0 min 0 min 0 W/m 8,4 km/h (2 Bft)
20.04.2015 00:10 7,7 C 4,4 C 75 % 1023,3 hPa 0,0 l/m 0 min 0 min 0 W/m 8,4 km/h (2 Bft)
20.04.2015 00:12 7,6 C 4,4 C 75 % 1023,3 hPa 0,0 l/m 0 min 0 min 0 W/m 8,4 km/h (2 Bft)
20.04.2015 00:14 7,6 C 4,4 C 75 % 1023,3 hPa 0,0 l/m 0 min 0 min 0 W/m 6,3 km/h (2 Bft)
20.04.2015 00:16 7,6 C 4,4 C 75 % 1023,3 hPa 0,0 l/m 0 min 0 min 0 W/m 8,4 km/h (2 Bft)
20.04.2015 00:18 7,5 C 4,4 C 76 % 1023,3 hPa 0,0 l/m 0 min 0 min 0 W/m 6,3 km/h (2 Bft)
20.04.2015 00:20 7,5 C 4,4 C 76 % 1023,3 hPa 0,0 l/m 0 min 0 min 0 W/m 6,3 km/h (2 Bft)
20.04.2015 00:22 7,4 C 4,4 C 76 % 1023,3 hPa 0,0 l/m 0 min 0 min 0 W/m 10,5 km/h (2 Bft)
20.04.2015 00:24 7,4 C 4,4 C 76 % 1023,3 hPa 0,0 l/m 0 min 0 min 0 W/m 12,6 km/h (3 Bft)
20.04.2015 00:26 7,4 C 4,4 C 76 % 1023,3 hPa 0,0 l/m 0 min 0 min 0 W/m 4,2 km/h (1 Bft)
20.04.2015 00:28 7,4 C 4,4 C 76 % 1023,3 hPa 0,0 l/m 0 min 0 min 0 W/m 4,2 km/h (1 Bft)
20.04.2015 00:30 7,3 C 4,4 C 76 % 1023,4 hPa 0,0 l/m 0 min 0 min 0 W/m 6,3 km/h (2 Bft)
20.04.2015 00:32 7,3 C 4,4 C 76 % 1023,4 hPa 0,0 l/m 0 min 0 min 0 W/m 8,4 km/h (2 Bft)
20.04.2015 00:34 7,3 C 4,4 C 76 % 1023,4 hPa 0,0 l/m 0 min 0 min 0 W/m 8,4 km/h (2 Bft)
20.04.2015 00:36 7,3 C 4,4 C 77 % 1023,4 hPa 0,0 l/m 0 min 0 min 0 W/m 10,5 km/h (2 Bft)
20.04.2015 00:38 7,2 C 4,4 C 76 % 1023,4 hPa 0,0 l/m 0 min 0 min 0 W/m 10,5 km/h (2 Bft)
20.04.2015 00:40 7,2 C 4,4 C 77 % 1023,4 hPa 0,0 l/m 0 min 0 min 0 W/m 10,5 km/h (2 Bft)
20.04.2015 00:42 7,2 C 5,0 C 77 % 1023,4 hPa 0,0 l/m 0 min 0 min 0 W/m 14,6 km/h (3 Bft)
20.04.2015 00:44 7,2 C 5,0 C 77 % 1023,4 hPa 0,0 l/m 0 min 0 min 0 W/m 14,6 km/h (3 Bft)
20.04.2015 00:46 7,2 C 5,0 C 77 % 1023,5 hPa 0,0 l/m 0 min 0 min 0 W/m 14,6 km/h (3 Bft)
20.04.2015 00:48 7,2 C 5,0 C 78 % 1023,4 hPa 0,0 l/m 0 min 0 min 0 W/m 14,6 km/h (3 Bft)
20.04.2015 00:50 7,2 C 5,0 C 78 % 1023,5 hPa 0,0 l/m 0 min 0 min 0 W/m 8,4 km/h (2 Bft)
20.04.2015 00:52 7,2 C 5,0 C 78 % 1023,4 hPa 0,0 l/m 0 min 0 min 0 W/m 10,5 km/h (2 Bft)
20.04.2015 00:54 7,3 C 5,6 C 78 % 1023,5 hPa 0,0 l/m 0 min 0 min 0 W/m 8,4 km/h (2 Bft)
20.04.2015 00:56 7,3 C 5,6 C 78 % 1023,5 hPa 0,0 l/m 0 min 0 min 0 W/m 14,6 km/h (3 Bft)
20.04.2015 00:58 7,3 C 5,6 C 78 % 1023,5 hPa 0,0 l/m 0 min 0 min 0 W/m 10,5 km/h (2 Bft)
20.04.2015 01:00 7,3 C 5,6 C 78 % 1023,5 hPa 0,0 l/m 0 min 0 min 0 W/m 8,4 km/h (2 Bft)
20.04.2015 01:02 7,4 C 5,6 C 78 % 1023,5 hPa 0,0 l/m 0 min 0 min 0 W/m 10,5 km/h (2 Bft)
20.04.2015 01:04 7,4 C 5,6 C 78 % 1023,5 hPa 0,0 l/m 0 min 0 min 0 W/m 10,5 km/h (2 Bft)
20.04.2015 01:06 7,4 C 5,6 C 78 % 1023,5 hPa 0,0 l/m 0 min 0 min 0 W/m 14,6 km/h (3 Bft)
20.04.2015 01:08 7,5 C 5,6 C 78 % 1023,5 hPa 0,0 l/m 0 min 0 min 0 W/m 14,6 km/h (3 Bft)
20.04.2015 01:10 7,5 C 5,6 C 78 % 1023,5 hPa 0,0 l/m 0 min 0 min 0 W/m 10,5 km/h (2 Bft)
20.04.2015 01:12 7,6 C 5,6 C 78 % 1023,5 hPa 0,0 l/m 0 min 0 min 0 W/m 10,5 km/h (2 Bft)
20.04.2015 01:14 7,6 C 5,6 C 78 % 1023,5 hPa 0,0 l/m 0 min 0 min 0 W/m 10,5 km/h (2 Bft)
20.04.2015 01:16 7,7 C 5,6 C 78 % 1023,5 hPa 0,0 l/m 0 min 0 min 0 W/m 12,6 km/h (3 Bft)
20.04.2015 01:18 7,7 C 5,6 C 78 % 1023,5 hPa 0,0 l/m 0 min 0 min 0 W/m 12,6 km/h (3 Bft)
20.04.2015 01:20 7,7 C 5,6 C 78 % 1023,5 hPa 0,0 l/m 0 min 0 min 0 W/m 8,4 km/h (2 Bft)
20.04.2015 01:22 7,8 C 5,6 C 78 % 1023,5 hPa 0,0 l/m 0 min 0 min 0 W/m 8,4 km/h (2 Bft)
20.04.2015 01:24 7,8 C 5,6 C 78 % 1023,5 hPa 0,0 l/m 0 min 0 min 0 W/m 12,6 km/h (3 Bft)
20.04.2015 01:26 7,8 C 5,6 C 77 % 1023,5 hPa 0,0 l/m 0 min 0 min 0 W/m 10,5 km/h (2 Bft)
20.04.2015 01:28 7,9 C 5,6 C 77 % 1023,5 hPa 0,0 l/m 0 min 0 min 0 W/m 8,4 km/h (2 Bft)
20.04.2015 01:30 7,9 C 5,6 C 77 % 1023,5 hPa 0,0 l/m 0 min 0 min 0 W/m 6,3 km/h (2 Bft)
20.04.2015 01:32 7,9 C 5,6 C 77 % 1023,6 hPa 0,0 l/m 0 min 0 min 0 W/m 8,4 km/h (2 Bft)
20.04.2015 01:34 7,9 C 5,6 C 77 % 1023,5 hPa 0,0 l/m 0 min 0 min 0 W/m 6,3 km/h (2 Bft)
20.04.2015 01:36 7,9 C 5,6 C 77 % 1023,5 hPa 0,0 l/m 0 min 0 min 0 W/m 6,3 km/h (2 Bft)
20.04.2015 01:38 8,0 C 5,6 C 77 % 1023,5 hPa 0,0 l/m 0 min 0 min 0 W/m 6,3 km/h (2 Bft)
20.04.2015 01:40 8,0 C 5,6 C 77 % 1023,5 hPa 0,0 l/m 0 min 0 min 0 W/m 8,4 km/h (2 Bft)
20.04.2015 01:42 8,0 C 5,6 C 77 % 1023,5 hPa 0,0 l/m 0 min 0 min 0 W/m 8,4 km/h (2 Bft)
20.04.2015 01:44 8,0 C 5,0 C 76 % 1023,5 hPa 0,0 l/m 0 min 0 min 0 W/m 6,3 km/h (2 Bft)
20.04.2015 01:46 8,1 C 5,0 C 76 % 1023,5 hPa 0,0 l/m 0 min 0 min 0 W/m 6,3 km/h (2 Bft)
20.04.2015 01:48 8,1 C 5,0 C 76 % 1023,5 hPa 0,0 l/m 0 min 0 min 0 W/m 4,2 km/h (1 Bft)
20.04.2015 01:50 8,1 C 5,0 C 76 % 1023,5 hPa 0,0 l/m 0 min 0 min 0 W/m 6,3 km/h (2 Bft)
20.04.2015 01:52 8,1 C 5,0 C 76 % 1023,5 hPa 0,0 l/m 0 min 0 min 0 W/m 6,3 km/h (2 Bft)
20.04.2015 01:54 8,1 C 5,0 C 76 % 1023,6 hPa 0,0 l/m 0 min 0 min 0 W/m 4,2 km/h (1 Bft)
20.04.2015 01:56 8,1 C 5,0 C 76 % 1023,5 hPa 0,0 l/m 0 min 0 min 0 W/m 4,2 km/h (1 Bft)
20.04.2015 01:58 8,1 C 5,0 C 76 % 1023,5 hPa 0,0 l/m 0 min 0 min 0 W/m 4,2 km/h (1 Bft)
20.04.2015 02:00 8,0 C 5,0 C 76 % 1023,6 hPa 0,0 l/m 0 min 0 min 0 W/m 4,2 km/h (1 Bft)
20.04.2015 02:02 8,0 C 5,0 C 76 % 1023,6 hPa 0,0 l/m 0 min 0 min 0 W/m 4,2 km/h (1 Bft)
20.04.2015 02:04 8,0 C 5,0 C 76 % 1023,6 hPa 0,0 l/m 0 min 0 min 0 W/m 4,2 km/h (1 Bft)
20.04.2015 02:06 7,9 C 4,4 C 76 % 1023,6 hPa 0,0 l/m 0 min 0 min 0 W/m 4,2 km/h (1 Bft)
20.04.2015 02:08 7,9 C 4,4 C 76 % 1023,6 hPa 0,0 l/m 0 min 0 min 0 W/m 2,1 km/h (1 Bft)
20.04.2015 02:10 7,9 C 4,4 C 76 % 1023,6 hPa 0,0 l/m 0 min 0 min 0 W/m 4,2 km/h (1 Bft)
20.04.2015 02:12 7,9 C 4,4 C 76 % 1023,6 hPa 0,0 l/m 0 min 0 min 0 W/m 4,2 km/h (1 Bft)
20.04.2015 02:14 7,8 C 4,4 C 76 % 1023,6 hPa 0,0 l/m 0 min 0 min 0 W/m 4,2 km/h (1 Bft)
20.04.2015 02:16 7,8 C 4,4 C 76 % 1023,6 hPa 0,0 l/m 0 min 0 min 0 W/m 2,1 km/h (1 Bft)
20.04.2015 02:18 7,8 C 4,4 C 76 % 1023,6 hPa 0,0 l/m 0 min 0 min 0 W/m 2,1 km/h (1 Bft)
20.04.2015 02:20 7,7 C 4,4 C 76 % 1023,6 hPa 0,0 l/m 0 min 0 min 0 W/m 2,1 km/h (1 Bft)
20.04.2015 02:22 7,7 C 4,4 C 76 % 1023,6 hPa 0,0 l/m 0 min 0 min 0 W/m 4,2 km/h (1 Bft)
20.04.2015 02:24 7,6 C 3,9 C 76 % 1023,6 hPa 0,0 l/m 0 min 0 min 0 W/m 2,1 km/h (1 Bft)
20.04.2015 02:26 7,6 C 3,9 C 76 % 1023,7 hPa 0,0 l/m 0 min 0 min 0 W/m 2,1 km/h (1 Bft)
20.04.2015 02:28 7,5 C 3,9 C 76 % 1023,6 hPa 0,0 l/m 0 min 0 min 0 W/m 2,1 km/h (1 Bft)
20.04.2015 02:30 7,4 C 3,9 C 76 % 1023,7 hPa 0,0 l/m 0 min 0 min 0 W/m 2,1 km/h (1 Bft)
20.04.2015 02:32 7,4 C 3,9 C 76 % 1023,7 hPa 0,0 l/m 0 min 0 min 0 W/m 2,1 km/h (1 Bft)
20.04.2015 02:34 7,3 C 3,9 C 76 % 1023,7 hPa 0,0 l/m 0 min 0 min 0 W/m 4,2 km/h (1 Bft)
20.04.2015 02:36 7,2 C 3,9 C 76 % 1023,7 hPa 0,0 l/m 0 min 0 min 0 W/m 2,1 km/h (1 Bft)
20.04.2015 02:38 7,2 C 3,9 C 76 % 1023,8 hPa 0,0 l/m 0 min 0 min 0 W/m 2,1 km/h (1 Bft)
20.04.2015 02:40 7,1 C 3,9 C 76 % 1023,9 hPa 0,0 l/m 0 min 0 min 0 W/m 4,2 km/h (1 Bft)
20.04.2015 02:42 7,1 C 3,9 C 76 % 1023,9 hPa 0,0 l/m 0 min 0 min 0 W/m 2,1 km/h (1 Bft)
20.04.2015 02:44 7,0 C 3,9 C 77 % 1023,9 hPa 0,0 l/m 0 min 0 min 0 W/m 2,1 km/h (1 Bft)
20.04.2015 02:46 6,9 C 3,9 C 77 % 1023,9 hPa 0,0 l/m 0 min 0 min 0 W/m 2,1 km/h (1 Bft)
20.04.2015 02:48 6,9 C 3,3 C 77 % 1023,9 hPa 0,0 l/m 0 min 0 min 0 W/m 2,1 km/h (1 Bft)
20.04.2015 02:50 6,8 C 3,3 C 77 % 1023,9 hPa 0,0 l/m 0 min 0 min 0 W/m 4,2 km/h (1 Bft)
20.04.2015 02:52 6,8 C 3,3 C 77 % 1023,9 hPa 0,0 l/m 0 min 0 min 0 W/m 4,2 km/h (1 Bft)
20.04.2015 02:54 6,7 C 3,3 C 77 % 1023,9 hPa 0,0 l/m 0 min 0 min 0 W/m 4,2 km/h (1 Bft)
20.04.2015 02:56 6,7 C 3,3 C 77 % 1023,9 hPa 0,0 l/m 0 min 0 min 0 W/m 6,3 km/h (2 Bft)
20.04.2015 02:58 6,6 C 3,3 C 77 % 1023,9 hPa 0,0 l/m 0 min 0 min 0 W/m 4,2 km/h (1 Bft)
20.04.2015 03:00 6,6 C 3,3 C 77 % 1023,9 hPa 0,0 l/m 0 min 0 min 0 W/m 6,3 km/h (2 Bft)
20.04.2015 03:02 6,5 C 3,3 C 77 % 1023,9 hPa 0,0 l/m 0 min 0 min 0 W/m 6,3 km/h (2 Bft)
20.04.2015 03:04 6,4 C 3,3 C 78 % 1023,9 hPa 0,0 l/m 0 min 0 min 0 W/m 4,2 km/h (1 Bft)
20.04.2015 03:06 6,4 C 3,3 C 78 % 1023,8 hPa 0,0 l/m 0 min 0 min 0 W/m 4,2 km/h (1 Bft)
20.04.2015 03:08 6,3 C 3,3 C 78 % 1023,9 hPa 0,0 l/m 0 min 0 min 0 W/m 2,1 km/h (1 Bft)
20.04.2015 03:10 6,3 C 3,3 C 78 % 1024,0 hPa 0,0 l/m 0 min 0 min 0 W/m 2,1 km/h (1 Bft)
20.04.2015 03:12 6,2 C 3,3 C 78 % 1024,0 hPa 0,0 l/m 0 min 0 min 0 W/m 4,2 km/h (1 Bft)
20.04.2015 03:14 6,2 C 3,3 C 78 % 1024,1 hPa 0,0 l/m 0 min 0 min 0 W/m 2,1 km/h (1 Bft)
20.04.2015 03:16 6,1 C 3,3 C 78 % 1024,1 hPa 0,0 l/m 0 min 0 min 0 W/m 2,1 km/h (1 Bft)
20.04.2015 03:18 6,1 C 3,3 C 78 % 1024,1 hPa 0,0 l/m 0 min 0 min 0 W/m 2,1 km/h (1 Bft)
20.04.2015 03:20 6,0 C 3,3 C 79 % 1024,2 hPa 0,0 l/m 0 min 0 min 0 W/m 4,2 km/h (1 Bft)
20.04.2015 03:22 6,0 C 3,3 C 79 % 1024,1 hPa 0,0 l/m 0 min 0 min 0 W/m 4,2 km/h (1 Bft)
20.04.2015 03:24 5,9 C 3,3 C 79 % 1024,2 hPa 0,0 l/m 0 min 0 min 0 W/m 4,2 km/h (1 Bft)
20.04.2015 03:26 5,9 C 3,3 C 79 % 1024,2 hPa 0,0 l/m 0 min 0 min 0 W/m 2,1 km/h (1 Bft)
20.04.2015 03:28 5,8 C 3,3 C 79 % 1024,2 hPa 0,0 l/m 0 min 0 min 0 W/m 2,1 km/h (1 Bft)
20.04.2015 03:30 5,8 C 3,3 C 79 % 1024,2 hPa 0,0 l/m 0 min 0 min 0 W/m 4,2 km/h (1 Bft)
20.04.2015 03:32 5,8 C 3,3 C 79 % 1024,3 hPa 0,0 l/m 0 min 0 min 0 W/m 2,1 km/h (1 Bft)
20.04.2015 03:34 5,7 C 3,3 C 80 % 1024,3 hPa 0,0 l/m 0 min 0 min 0 W/m 2,1 km/h (1 Bft)
20.04.2015 03:36 5,7 C 3,3 C 80 % 1024,3 hPa 0,0 l/m 0 min 0 min 0 W/m 0,0 km/h (0 Bft)
20.04.2015 03:38 5,7 C 2,8 C 80 % 1024,3 hPa 0,0 l/m 0 min 0 min 0 W/m 2,1 km/h (1 Bft)
20.04.2015 03:40 5,6 C 2,8 C 80 % 1024,2 hPa 0,0 l/m 0 min 0 min 0 W/m 0,0 km/h (0 Bft)
20.04.2015 03:42 5,6 C 2,8 C 80 % 1024,3 hPa 0,0 l/m 0 min 0 min 0 W/m 0,0 km/h (0 Bft)
20.04.2015 03:44 5,5 C 2,8 C 80 % 1024,3 hPa 0,0 l/m 0 min 0 min 0 W/m 0,0 km/h (0 Bft)
20.04.2015 03:46 5,5 C 2,8 C 81 % 1024,2 hPa 0,0 l/m 0 min 0 min 0 W/m 2,1 km/h (1 Bft)
20.04.2015 03:48 5,4 C 2,8 C 81 % 1024,3 hPa 0,0 l/m 0 min 0 min 0 W/m 0,0 km/h (0 Bft)
20.04.2015 03:50 5,4 C 2,8 C 81 % 1024,3 hPa 0,0 l/m 0 min 0 min 0 W/m 2,1 km/h (1 Bft)
20.04.2015 03:52 5,4 C 2,8 C 81 % 1024,3 hPa 0,0 l/m 0 min 0 min 0 W/m 2,1 km/h (1 Bft)
20.04.2015 03:54 5,3 C 2,8 C 81 % 1024,3 hPa 0,0 l/m 0 min 0 min 0 W/m 2,1 km/h (1 Bft)
20.04.2015 03:56 5,3 C 2,8 C 81 % 1024,3 hPa 0,0 l/m 0 min 0 min 0 W/m 2,1 km/h (1 Bft)
20.04.2015 03:58 5,3 C 2,8 C 81 % 1024,3 hPa 0,0 l/m 0 min 0 min 0 W/m 2,1 km/h (1 Bft)
20.04.2015 04:00 5,2 C 2,8 C 81 % 1024,3 hPa 0,0 l/m 0 min 0 min 0 W/m 2,1 km/h (1 Bft)
20.04.2015 04:02 5,2 C 2,8 C 81 % 1024,3 hPa 0,0 l/m 0 min 0 min 0 W/m 0,0 km/h (0 Bft)
20.04.2015 04:04 5,1 C 2,8 C 81 % 1024,3 hPa 0,0 l/m 0 min 0 min 0 W/m 0,0 km/h (0 Bft)
20.04.2015 04:06 5,1 C 2,8 C 81 % 1024,3 hPa 0,0 l/m 0 min 0 min 0 W/m 0,0 km/h (0 Bft)
20.04.2015 04:08 5,1 C 2,8 C 81 % 1024,3 hPa 0,0 l/m 0 min 0 min 0 W/m 2,1 km/h (1 Bft)
20.04.2015 04:10 5,0 C 2,8 C 81 % 1024,3 hPa 0,0 l/m 0 min 0 min 0 W/m 2,1 km/h (1 Bft)
20.04.2015 04:12 5,0 C 2,8 C 81 % 1024,3 hPa 0,0 l/m 0 min 0 min 0 W/m 2,1 km/h (1 Bft)
20.04.2015 04:14 4,9 C 2,8 C 81 % 1024,3 hPa 0,0 l/m 0 min 0 min 0 W/m 2,1 km/h (1 Bft)
20.04.2015 04:16 4,9 C 2,8 C 81 % 1024,3 hPa 0,0 l/m 0 min 0 min 0 W/m 2,1 km/h (1 Bft)
20.04.2015 04:18 4,9 C 2,8 C 81 % 1024,3 hPa 0,0 l/m 0 min 0 min 0 W/m 2,1 km/h (1 Bft)
20.04.2015 04:20 4,9 C 2,8 C 82 % 1024,3 hPa 0,0 l/m 0 min 0 min 0 W/m 2,1 km/h (1 Bft)
20.04.2015 04:22 4,8 C 2,8 C 82 % 1024,3 hPa 0,0 l/m 0 min 0 min 0 W/m 2,1 km/h (1 Bft)
20.04.2015 04:24 4,8 C 2,2 C 82 % 1024,4 hPa 0,0 l/m 0 min 0 min 0 W/m 2,1 km/h (1 Bft)
20.04.2015 04:26 4,8 C 2,2 C 82 % 1024,3 hPa 0,0 l/m 0 min 0 min 0 W/m 2,1 km/h (1 Bft)
20.04.2015 04:28 4,7 C 2,2 C 82 % 1024,4 hPa 0,0 l/m 0 min 0 min 0 W/m 2,1 km/h (1 Bft)
20.04.2015 04:30 4,7 C 2,2 C 82 % 1024,4 hPa 0,0 l/m 0 min 0 min 0 W/m 4,2 km/h (1 Bft)
20.04.2015 04:32 4,7 C 2,8 C 82 % 1024,5 hPa 0,0 l/m 0 min 0 min 0 W/m 4,2 km/h (1 Bft)
20.04.2015 04:34 4,7 C 2,8 C 83 % 1024,5 hPa 0,0 l/m 0 min 0 min 0 W/m 4,2 km/h (1 Bft)
20.04.2015 04:36 4,6 C 2,8 C 83 % 1024,4 hPa 0,0 l/m 0 min 0 min 0 W/m 4,2 km/h (1 Bft)
20.04.2015 04:38 4,6 C 2,8 C 83 % 1024,4 hPa 0,0 l/m 0 min 0 min 0 W/m 4,2 km/h (1 Bft)
20.04.2015 04:40 4,6 C 2,8 C 83 % 1024,4 hPa 0,0 l/m 0 min 0 min 0 W/m 4,2 km/h (1 Bft)
20.04.2015 04:42 4,6 C 2,2 C 84 % 1024,5 hPa 0,0 l/m 0 min 0 min 0 W/m 4,2 km/h (1 Bft)
20.04.2015 04:44 4,5 C 2,2 C 84 % 1024,5 hPa 0,0 l/m 0 min 0 min 0 W/m 4,2 km/h (1 Bft)
20.04.2015 04:46 4,5 C 2,2 C 84 % 1024,4 hPa 0,0 l/m 0 min 0 min 0 W/m 4,2 km/h (1 Bft)
20.04.2015 04:48 4,5 C 2,2 C 84 % 1024,5 hPa 0,0 l/m 0 min 0 min 0 W/m 4,2 km/h (1 Bft)
20.04.2015 04:50 4,4 C 2,2 C 84 % 1024,5 hPa 0,0 l/m 0 min 0 min 0 W/m 4,2 km/h (1 Bft)
20.04.2015 04:52 4,4 C 2,2 C 84 % 1024,5 hPa 0,0 l/m 0 min 0 min 0 W/m 4,2 km/h (1 Bft)
20.04.2015 04:54 4,4 C 2,2 C 84 % 1024,5 hPa 0,0 l/m 0 min 0 min 0 W/m 6,3 km/h (2 Bft)
20.04.2015 04:56 4,4 C 2,2 C 84 % 1024,5 hPa 0,0 l/m 0 min 0 min 0 W/m 4,2 km/h (1 Bft)
20.04.2015 04:58 4,4 C 2,2 C 84 % 1024,4 hPa 0,0 l/m 0 min 0 min 0 W/m 4,2 km/h (1 Bft)
20.04.2015 05:00 4,3 C 2,2 C 84 % 1024,5 hPa 0,0 l/m 0 min 0 min 0 W/m 4,2 km/h (1 Bft)
20.04.2015 05:02 4,3 C 2,2 C 84 % 1024,6 hPa 0,0 l/m 0 min 0 min 0 W/m 4,2 km/h (1 Bft)
20.04.2015 05:04 4,3 C 2,2 C 84 % 1024,6 hPa 0,0 l/m 0 min 0 min 0 W/m 6,3 km/h (2 Bft)
20.04.2015 05:06 4,3 C 2,2 C 84 % 1024,6 hPa 0,0 l/m 0 min 0 min 0 W/m 6,3 km/h (2 Bft)
20.04.2015 05:08 4,3 C 2,2 C 84 % 1024,7 hPa 0,0 l/m 0 min 0 min 0 W/m 4,2 km/h (1 Bft)
20.04.2015 05:10 4,2 C 2,2 C 84 % 1024,7 hPa 0,0 l/m 0 min 0 min 0 W/m 4,2 km/h (1 Bft)
20.04.2015 05:12 4,2 C 2,2 C 84 % 1024,7 hPa 0,0 l/m 0 min 0 min 0 W/m 4,2 km/h (1 Bft)
20.04.2015 05:14 4,2 C 2,2 C 84 % 1024,6 hPa 0,0 l/m 0 min 0 min 0 W/m 2,1 km/h (1 Bft)
20.04.2015 05:16 4,2 C 2,2 C 84 % 1024,7 hPa 0,0 l/m 0 min 0 min 0 W/m 2,1 km/h (1 Bft)
20.04.2015 05:18 4,2 C 2,2 C 84 % 1024,7 hPa 0,0 l/m 0 min 0 min 0 W/m 4,2 km/h (1 Bft)
20.04.2015 05:20 4,1 C 2,2 C 84 % 1024,7 hPa 0,0 l/m 0 min 0 min 0 W/m 4,2 km/h (1 Bft)
20.04.2015 05:22 4,1 C 2,2 C 84 % 1024,7 hPa 0,0 l/m 0 min 0 min 0 W/m 2,1 km/h (1 Bft)
20.04.2015 05:24 4,1 C 2,2 C 84 % 1024,7 hPa 0,0 l/m 0 min 0 min 0 W/m 4,2 km/h (1 Bft)
20.04.2015 05:26 4,1 C 2,2 C 84 % 1024,7 hPa 0,0 l/m 0 min 0 min 0 W/m 4,2 km/h (1 Bft)
20.04.2015 05:28 4,0 C 2,2 C 85 % 1024,7 hPa 0,0 l/m 0 min 0 min 0 W/m 2,1 km/h (1 Bft)
20.04.2015 05:30 4,0 C 2,2 C 85 % 1024,8 hPa 0,0 l/m 0 min 0 min 0 W/m 2,1 km/h (1 Bft)
20.04.2015 05:32 4,0 C 2,2 C 85 % 1024,8 hPa 0,0 l/m 0 min 0 min 0 W/m 2,1 km/h (1 Bft)
20.04.2015 05:34 3,9 C 2,2 C 85 % 1024,8 hPa 0,0 l/m 0 min 0 min 0 W/m 2,1 km/h (1 Bft)
20.04.2015 05:36 3,9 C 2,2 C 85 % 1024,8 hPa 0,0 l/m 0 min 0 min 0 W/m 2,1 km/h (1 Bft)
20.04.2015 05:38 3,9 C 2,2 C 85 % 1024,9 hPa 0,0 l/m 0 min 0 min 0 W/m 2,1 km/h (1 Bft)
20.04.2015 05:40 3,9 C 2,2 C 85 % 1024,9 hPa 0,0 l/m 0 min 0 min 0 W/m 2,1 km/h (1 Bft)
20.04.2015 05:42 3,9 C 2,2 C 85 % 1024,9 hPa 0,0 l/m 0 min 0 min 0 W/m 2,1 km/h (1 Bft)
20.04.2015 05:44 3,9 C 2,2 C 85 % 1024,9 hPa 0,0 l/m 0 min 0 min 0 W/m 2,1 km/h (1 Bft)
20.04.2015 05:46 3,8 C 2,2 C 85 % 1024,9 hPa 0,0 l/m 0 min 0 min 0 W/m 2,1 km/h (1 Bft)
20.04.2015 05:48 3,8 C 2,2 C 85 % 1024,9 hPa 0,0 l/m 0 min 0 min 0 W/m 2,1 km/h (1 Bft)
20.04.2015 05:50 3,8 C 2,2 C 85 % 1024,9 hPa 0,0 l/m 0 min 0 min 0 W/m 2,1 km/h (1 Bft)
20.04.2015 05:52 3,8 C 2,2 C 86 % 1024,9 hPa 0,0 l/m 0 min 0 min 0 W/m 2,1 km/h (1 Bft)
20.04.2015 05:54 3,7 C 2,2 C 86 % 1024,9 hPa 0,0 l/m 0 min 0 min 0 W/m 2,1 km/h (1 Bft)
20.04.2015 05:56 3,7 C 2,2 C 86 % 1024,9 hPa 0,0 l/m 0 min 0 min 0 W/m 2,1 km/h (1 Bft)
20.04.2015 05:58 3,7 C 1,7 C 86 % 1024,9 hPa 0,0 l/m 0 min 0 min 0 W/m 2,1 km/h (1 Bft)
20.04.2015 06:00 3,7 C 1,7 C 86 % 1024,9 hPa 0,0 l/m 0 min 0 min 0 W/m 2,1 km/h (1 Bft)
20.04.2015 06:02 3,7 C 1,7 C 86 % 1025,0 hPa 0,0 l/m 0 min 0 min 0 W/m 4,2 km/h (1 Bft)
20.04.2015 06:06 3,7 C 1,7 C 86 % 1024,9 hPa 0,0 l/m 0 min 0 min 0 W/m 4,2 km/h (1 Bft)
20.04.2015 06:08 3,6 C 1,7 C 86 % 1024,9 hPa 0,0 l/m 0 min 0 min 0 W/m 2,1 km/h (1 Bft)
20.04.2015 06:10 3,6 C 1,7 C 86 % 1025,0 hPa 0,0 l/m 0 min 0 min 0 W/m 4,2 km/h (1 Bft)
20.04.2015 06:12 3,6 C 1,7 C 86 % 1025,0 hPa 0,0 l/m 0 min 0 min 0 W/m 2,1 km/h (1 Bft)
20.04.2015 06:14 3,6 C 1,7 C 86 % 1025,0 hPa 0,0 l/m 0 min 0 min 0 W/m 2,1 km/h (1 Bft)
20.04.2015 06:16 3,6 C 1,7 C 86 % 1025,0 hPa 0,0 l/m 0 min 0 min 0 W/m 2,1 km/h (1 Bft)
20.04.2015 06:18 3,6 C 1,7 C 86 % 1025,0 hPa 0,0 l/m 0 min 0 min 0 W/m 4,2 km/h (1 Bft)
20.04.2015 06:20 3,6 C 1,7 C 86 % 1025,0 hPa 0,0 l/m 0 min 0 min 0 W/m 4,2 km/h (1 Bft)
20.04.2015 06:22 3,5 C 1,7 C 86 % 1025,1 hPa 0,0 l/m 0 min 0 min 2 W/m 2,1 km/h (1 Bft)
20.04.2015 06:24 3,5 C 1,7 C 86 % 1025,1 hPa 0,0 l/m 0 min 0 min 5 W/m 2,1 km/h (1 Bft)
20.04.2015 06:26 3,5 C 1,7 C 86 % 1025,1 hPa 0,0 l/m 0 min 0 min 5 W/m 0,0 km/h (0 Bft)
20.04.2015 06:28 3,4 C 1,7 C 86 % 1025,1 hPa 0,0 l/m 0 min 0 min 5 W/m 0,0 km/h (0 Bft)
20.04.2015 06:30 3,4 C 1,7 C 86 % 1025,2 hPa 0,0 l/m 0 min 0 min 7 W/m 2,1 km/h (1 Bft)
20.04.2015 06:32 3,4 C 1,7 C 86 % 1025,2 hPa 0,0 l/m 0 min 0 min 8 W/m 2,1 km/h (1 Bft)
20.04.2015 06:34 3,4 C 1,7 C 86 % 1025,1 hPa 0,0 l/m 0 min 0 min 10 W/m 2,1 km/h (1 Bft)
20.04.2015 06:36 3,4 C 1,7 C 86 % 1025,2 hPa 0,0 l/m 0 min 0 min 11 W/m 2,1 km/h (1 Bft)
20.04.2015 06:38 3,4 C 1,7 C 86 % 1025,2 hPa 0,0 l/m 0 min 0 min 12 W/m 2,1 km/h (1 Bft)
20.04.2015 06:40 3,4 C 1,7 C 86 % 1025,2 hPa 0,0 l/m 0 min 0 min 14 W/m 2,1 km/h (1 Bft)
20.04.2015 06:42 3,4 C 1,7 C 86 % 1025,2 hPa 0,0 l/m 0 min 0 min 15 W/m 2,1 km/h (1 Bft)
20.04.2015 06:44 3,4 C 1,7 C 86 % 1025,3 hPa 0,0 l/m 0 min 0 min 17 W/m 2,1 km/h (1 Bft)
20.04.2015 06:46 3,3 C 1,7 C 86 % 1025,3 hPa 0,0 l/m 2 min 0 min 18 W/m 2,1 km/h (1 Bft)
20.04.2015 06:48 3,3 C 1,7 C 86 % 1025,2 hPa 0,0 l/m 2 min 0 min 19 W/m 2,1 km/h (1 Bft)
20.04.2015 06:50 3,3 C 1,7 C 86 % 1025,2 hPa 0,0 l/m 2 min 0 min 21 W/m 2,1 km/h (1 Bft)
20.04.2015 06:52 3,3 C 1,7 C 87 % 1025,2 hPa 0,0 l/m 2 min 0 min 24 W/m 4,2 km/h (1 Bft)
20.04.2015 06:54 3,3 C 1,7 C 87 % 1025,2 hPa 0,0 l/m 2 min 0 min 26 W/m 2,1 km/h (1 Bft)
20.04.2015 06:56 3,3 C 1,7 C 87 % 1025,2 hPa 0,0 l/m 2 min 0 min 27 W/m 2,1 km/h (1 Bft)
20.04.2015 06:58 3,3 C 1,7 C 87 % 1025,3 hPa 0,0 l/m 2 min 0 min 29 W/m 2,1 km/h (1 Bft)
20.04.2015 07:00 3,3 C 1,7 C 87 % 1025,3 hPa 0,0 l/m 2 min 0 min 32 W/m 4,2 km/h (1 Bft)
20.04.2015 07:02 3,3 C 2,2 C 87 % 1025,4 hPa 0,0 l/m 2 min 0 min 37 W/m 4,2 km/h (1 Bft)
20.04.2015 07:04 3,3 C 2,2 C 87 % 1025,4 hPa 0,0 l/m 2 min 0 min 45 W/m 4,2 km/h (1 Bft)
20.04.2015 07:06 3,3 C 2,2 C 87 % 1025,3 hPa 0,0 l/m 2 min 0 min 52 W/m 4,2 km/h (1 Bft)
20.04.2015 07:08 3,3 C 2,2 C 87 % 1025,3 hPa 0,0 l/m 2 min 0 min 56 W/m 4,2 km/h (1 Bft)
20.04.2015 07:10 3,3 C 2,2 C 87 % 1025,3 hPa 0,0 l/m 2 min 0 min 58 W/m 2,1 km/h (1 Bft)
20.04.2015 07:12 3,2 C 2,2 C 87 % 1025,3 hPa 0,0 l/m 2 min 0 min 62 W/m 4,2 km/h (1 Bft)
20.04.2015 07:14 3,3 C 2,2 C 87 % 1025,4 hPa 0,0 l/m 2 min 0 min 65 W/m 4,2 km/h (1 Bft)
20.04.2015 07:16 3,3 C 2,2 C 87 % 1025,4 hPa 0,0 l/m 2 min 0 min 64 W/m 4,2 km/h (1 Bft)
20.04.2015 07:18 3,3 C 2,2 C 87 % 1025,4 hPa 0,0 l/m 2 min 0 min 59 W/m 2,1 km/h (1 Bft)
20.04.2015 07:20 3,3 C 2,2 C 87 % 1025,6 hPa 0,0 l/m 0 min 0 min 49 W/m 4,2 km/h (1 Bft)
20.04.2015 07:22 3,3 C 2,2 C 88 % 1025,5 hPa 0,0 l/m 0 min 0 min 48 W/m 4,2 km/h (1 Bft)
20.04.2015 07:24 3,3 C 2,2 C 88 % 1025,6 hPa 0,0 l/m 0 min 0 min 53 W/m 4,2 km/h (1 Bft)
20.04.2015 07:26 3,3 C 2,2 C 88 % 1025,6 hPa 0,0 l/m 0 min 0 min 60 W/m 4,2 km/h (1 Bft)
20.04.2015 07:28 3,3 C 2,2 C 88 % 1025,6 hPa 0,0 l/m 0 min 0 min 61 W/m 2,1 km/h (1 Bft)
20.04.2015 07:30 3,3 C 2,2 C 88 % 1025,6 hPa 0,0 l/m 0 min 0 min 56 W/m 2,1 km/h (1 Bft)
20.04.2015 07:32 3,3 C 2,2 C 88 % 1025,7 hPa 0,0 l/m 0 min 0 min 56 W/m 2,1 km/h (1 Bft)
20.04.2015 07:34 3,3 C 2,2 C 88 % 1025,7 hPa 0,0 l/m 0 min 0 min 61 W/m 2,1 km/h (1 Bft)
20.04.2015 07:36 3,4 C 2,2 C 89 % 1025,8 hPa 0,0 l/m 0 min 0 min 66 W/m 2,1 km/h (1 Bft)
20.04.2015 07:38 3,4 C 2,8 C 89 % 1025,8 hPa 0,0 l/m 0 min 0 min 74 W/m 2,1 km/h (1 Bft)
20.04.2015 07:40 3,4 C 2,8 C 89 % 1025,9 hPa 0,0 l/m 2 min 0 min 82 W/m 2,1 km/h (1 Bft)
20.04.2015 07:42 3,4 C 2,8 C 89 % 1025,9 hPa 0,0 l/m 0 min 0 min 69 W/m 2,1 km/h (1 Bft)
20.04.2015 07:44 3,4 C 2,8 C 89 % 1025,9 hPa 0,0 l/m 0 min 0 min 63 W/m 4,2 km/h (1 Bft)
20.04.2015 07:46 3,4 C 2,8 C 89 % 1025,9 hPa 0,0 l/m 0 min 0 min 76 W/m 4,2 km/h (1 Bft)
20.04.2015 07:48 3,4 C 2,8 C 89 % 1026,0 hPa 0,0 l/m 2 min 0 min 98 W/m 4,2 km/h (1 Bft)
20.04.2015 07:50 3,5 C 2,8 C 89 % 1026,0 hPa 0,0 l/m 2 min 0 min 122 W/m 4,2 km/h (1 Bft)
20.04.2015 07:52 3,5 C 3,3 C 89 % 1026,0 hPa 0,0 l/m 2 min 0 min 125 W/m 4,2 km/h (1 Bft)
20.04.2015 07:54 3,6 C 3,3 C 90 % 1026,0 hPa 0,0 l/m 2 min 0 min 124 W/m 4,2 km/h (1 Bft)
20.04.2015 07:56 3,7 C 3,3 C 90 % 1026,0 hPa 0,0 l/m 2 min 0 min 148 W/m 4,2 km/h (1 Bft)
20.04.2015 07:58 3,7 C 3,9 C 90 % 1026,1 hPa 0,0 l/m 2 min 0 min 152 W/m 4,2 km/h (1 Bft)
20.04.2015 08:00 3,7 C 3,9 C 90 % 1026,1 hPa 0,0 l/m 2 min 0 min 147 W/m 4,2 km/h (1 Bft)
20.04.2015 08:02 3,8 C 3,9 C 90 % 1026,1 hPa 0,0 l/m 2 min 0 min 199 W/m 4,2 km/h (1 Bft)
20.04.2015 08:04 3,8 C 3,9 C 90 % 1026,1 hPa 0,0 l/m 2 min 0 min 200 W/m 4,2 km/h (1 Bft)
20.04.2015 08:06 3,9 C 3,9 C 91 % 1026,2 hPa 0,0 l/m 2 min 0 min 195 W/m 4,2 km/h (1 Bft)
20.04.2015 08:08 3,9 C 3,9 C 91 % 1026,2 hPa 0,0 l/m 2 min 0 min 167 W/m 2,1 km/h (1 Bft)
20.04.2015 08:10 4,0 C 3,9 C 91 % 1026,3 hPa 0,0 l/m 2 min 0 min 141 W/m 4,2 km/h (1 Bft)
20.04.2015 08:12 4,1 C 3,9 C 91 % 1026,2 hPa 0,0 l/m 2 min 0 min 135 W/m 2,1 km/h (1 Bft)
20.04.2015 08:14 4,1 C 3,9 C 91 % 1026,2 hPa 0,0 l/m 2 min 0 min 128 W/m 2,1 km/h (1 Bft)
20.04.2015 08:16 4,2 C 3,9 C 91 % 1026,3 hPa 0,0 l/m 2 min 0 min 134 W/m 2,1 km/h (1 Bft)
20.04.2015 08:18 4,2 C 4,4 C 91 % 1026,3 hPa 0,0 l/m 2 min 0 min 144 W/m 4,2 km/h (1 Bft)
20.04.2015 08:20 4,3 C 4,4 C 91 % 1026,3 hPa 0,0 l/m 2 min 0 min 181 W/m 2,1 km/h (1 Bft)
20.04.2015 08:22 4,3 C 4,4 C 91 % 1026,3 hPa 0,0 l/m 2 min 0 min 221 W/m 2,1 km/h (1 Bft)
20.04.2015 08:24 4,4 C 4,4 C 91 % 1026,4 hPa 0,0 l/m 2 min 0 min 170 W/m 4,2 km/h (1 Bft)
20.04.2015 08:26 4,4 C 4,4 C 92 % 1026,4 hPa 0,0 l/m 2 min 0 min 140 W/m 4,2 km/h (1 Bft)
20.04.2015 08:28 4,6 C 4,4 C 92 % 1026,4 hPa 0,0 l/m 2 min 0 min 230 W/m 6,3 km/h (2 Bft)
20.04.2015 08:30 4,6 C 5,0 C 92 % 1026,4 hPa 0,0 l/m 2 min 0 min 244 W/m 6,3 km/h (2 Bft)
20.04.2015 08:32 4,7 C 5,0 C 92 % 1026,5 hPa 0,0 l/m 2 min 0 min 261 W/m 4,2 km/h (1 Bft)
20.04.2015 08:34 4,8 C 5,6 C 92 % 1026,5 hPa 0,0 l/m 2 min 0 min 199 W/m 8,4 km/h (2 Bft)
20.04.2015 08:36 4,9 C 5,6 C 92 % 1026,5 hPa 0,0 l/m 2 min 0 min 207 W/m 8,4 km/h (2 Bft)
20.04.2015 08:38 5,2 C 6,1 C 93 % 1026,7 hPa 0,0 l/m 2 min 0 min 221 W/m 10,5 km/h (2 Bft)
20.04.2015 08:40 5,4 C 6,7 C 92 % 1026,7 hPa 0,0 l/m 2 min 0 min 180 W/m 8,4 km/h (2 Bft)
20.04.2015 08:42 5,6 C 6,7 C 93 % 1026,6 hPa 0,0 l/m 2 min 0 min 180 W/m 8,4 km/h (2 Bft)
20.04.2015 08:44 5,8 C 6,7 C 93 % 1026,6 hPa 0,0 l/m 2 min 0 min 203 W/m 10,5 km/h (2 Bft)
20.04.2015 08:46 6,0 C 6,7 C 93 % 1026,5 hPa 0,0 l/m 2 min 0 min 317 W/m 10,5 km/h (2 Bft)
20.04.2015 08:48 6,3 C 7,2 C 92 % 1026,5 hPa 0,0 l/m 2 min 0 min 304 W/m 10,5 km/h (2 Bft)
20.04.2015 08:50 6,4 C 7,2 C 92 % 1026,6 hPa 0,0 l/m 2 min 0 min 254 W/m 10,5 km/h (2 Bft)
20.04.2015 08:52 6,7 C 7,2 C 92 % 1026,6 hPa 0,0 l/m 2 min 0 min 222 W/m 10,5 km/h (2 Bft)
20.04.2015 08:54 6,8 C 7,2 C 91 % 1026,7 hPa 0,0 l/m 2 min 0 min 211 W/m 8,4 km/h (2 Bft)
20.04.2015 08:56 7,0 C 7,2 C 91 % 1026,6 hPa 0,0 l/m 2 min 0 min 229 W/m 10,5 km/h (2 Bft)
20.04.2015 08:58 7,2 C 7,8 C 90 % 1026,7 hPa 0,0 l/m 2 min 0 min 264 W/m 8,4 km/h (2 Bft)
20.04.2015 09:00 7,3 C 7,8 C 89 % 1026,7 hPa 0,0 l/m 2 min 0 min 232 W/m 8,4 km/h (2 Bft)
20.04.2015 09:02 7,5 C 7,8 C 88 % 1026,6 hPa 0,0 l/m 2 min 0 min 213 W/m 8,4 km/h (2 Bft)
20.04.2015 09:04 7,6 C 7,8 C 88 % 1026,8 hPa 0,0 l/m 2 min 0 min 260 W/m 10,5 km/h (2 Bft)
20.04.2015 09:06 7,8 C 7,8 C 87 % 1026,8 hPa 0,0 l/m 2 min 0 min 295 W/m 8,4 km/h (2 Bft)
20.04.2015 09:08 7,9 C 7,8 C 86 % 1026,8 hPa 0,0 l/m 2 min 0 min 296 W/m 8,4 km/h (2 Bft)
20.04.2015 09:10 8,1 C 7,8 C 85 % 1026,9 hPa 0,0 l/m 2 min 0 min 317 W/m 8,4 km/h (2 Bft)
20.04.2015 09:12 8,2 C 8,3 C 84 % 1026,9 hPa 0,0 l/m 2 min 0 min 296 W/m 8,4 km/h (2 Bft)
20.04.2015 09:14 8,3 C 8,3 C 84 % 1026,9 hPa 0,0 l/m 2 min 0 min 260 W/m 8,4 km/h (2 Bft)
20.04.2015 09:16 8,4 C 8,3 C 83 % 1026,9 hPa 0,0 l/m 2 min 0 min 329 W/m 8,4 km/h (2 Bft)
20.04.2015 09:18 8,5 C 8,3 C 82 % 1026,8 hPa 0,0 l/m 2 min 0 min 387 W/m 8,4 km/h (2 Bft)
20.04.2015 09:20 8,6 C 8,9 C 82 % 1026,9 hPa 0,0 l/m 2 min 0 min 376 W/m 8,4 km/h (2 Bft)
20.04.2015 09:22 8,7 C 8,9 C 81 % 1026,9 hPa 0,0 l/m 2 min 0 min 345 W/m 8,4 km/h (2 Bft)
20.04.2015 09:24 8,8 C 8,9 C 81 % 1026,9 hPa 0,0 l/m 2 min 0 min 354 W/m 8,4 km/h (2 Bft)
20.04.2015 09:26 8,9 C 8,9 C 80 % 1026,9 hPa 0,0 l/m 2 min 0 min 332 W/m 8,4 km/h (2 Bft)
20.04.2015 09:28 9,1 C 8,9 C 80 % 1026,9 hPa 0,0 l/m 2 min 0 min 308 W/m 8,4 km/h (2 Bft)
20.04.2015 09:30 9,2 C 8,9 C 79 % 1026,9 hPa 0,0 l/m 2 min 0 min 305 W/m 8,4 km/h (2 Bft)
20.04.2015 09:32 9,3 C 9,4 C 79 % 1026,9 hPa 0,0 l/m 2 min 0 min 315 W/m 6,3 km/h (2 Bft)
20.04.2015 09:34 9,4 C 9,4 C 78 % 1026,9 hPa 0,0 l/m 2 min 0 min 332 W/m 8,4 km/h (2 Bft)
20.04.2015 09:36 9,5 C 9,4 C 78 % 1026,8 hPa 0,0 l/m 2 min 0 min 397 W/m 4,2 km/h (1 Bft)
20.04.2015 09:38 9,6 C 9,4 C 78 % 1026,9 hPa 0,0 l/m 2 min 0 min 478 W/m 6,3 km/h (2 Bft)
20.04.2015 09:40 9,7 C 10,0 C 77 % 1026,9 hPa 0,0 l/m 2 min 0 min 466 W/m 8,4 km/h (2 Bft)
20.04.2015 09:42 9,8 C 11,1 C 77 % 1026,9 hPa 0,0 l/m 2 min 0 min 462 W/m 8,4 km/h (2 Bft)
20.04.2015 09:44 9,9 C 11,7 C 77 % 1026,9 hPa 0,0 l/m 2 min 0 min 445 W/m 8,4 km/h (2 Bft)
20.04.2015 09:46 10,0 C 12,2 C 76 % 1026,9 hPa 0,0 l/m 2 min 0 min 467 W/m 8,4 km/h (2 Bft)
20.04.2015 09:48 10,1 C 12,2 C 76 % 1026,9 hPa 0,0 l/m 2 min 0 min 479 W/m 8,4 km/h (2 Bft)
20.04.2015 09:50 10,3 C 11,7 C 75 % 1026,9 hPa 0,0 l/m 2 min 0 min 504 W/m 10,5 km/h (2 Bft)
20.04.2015 09:52 10,4 C 11,1 C 74 % 1026,9 hPa 0,0 l/m 2 min 0 min 505 W/m 8,4 km/h (2 Bft)
20.04.2015 09:54 10,5 C 10,6 C 74 % 1026,9 hPa 0,0 l/m 2 min 0 min 496 W/m 6,3 km/h (2 Bft)
20.04.2015 09:56 10,6 C 10,6 C 74 % 1026,9 hPa 0,0 l/m 2 min 0 min 511 W/m 6,3 km/h (2 Bft)
20.04.2015 09:58 10,7 C 10,6 C 73 % 1027,0 hPa 0,0 l/m 2 min 0 min 517 W/m 10,5 km/h (2 Bft)
20.04.2015 10:00 10,9 C 10,6 C 73 % 1026,9 hPa 0,0 l/m 2 min 0 min 525 W/m 10,5 km/h (2 Bft)
20.04.2015 10:02 11,1 C 10,6 C 72 % 1026,9 hPa 0,0 l/m 2 min 0 min 529 W/m 10,5 km/h (2 Bft)
20.04.2015 10:04 11,2 C 11,1 C 72 % 1026,9 hPa 0,0 l/m 2 min 0 min 534 W/m 12,6 km/h (3 Bft)
20.04.2015 10:06 11,3 C 11,1 C 72 % 1027,0 hPa 0,0 l/m 2 min 0 min 538 W/m 12,6 km/h (3 Bft)
20.04.2015 10:08 11,4 C 11,1 C 70 % 1027,0 hPa 0,0 l/m 2 min 0 min 543 W/m 10,5 km/h (2 Bft)
20.04.2015 10:10 11,6 C 11,7 C 71 % 1027,1 hPa 0,0 l/m 2 min 0 min 547 W/m 10,5 km/h (2 Bft)
20.04.2015 10:12 11,7 C 11,7 C 71 % 1027,1 hPa 0,0 l/m 2 min 0 min 550 W/m 10,5 km/h (2 Bft)
20.04.2015 10:14 11,9 C 11,7 C 70 % 1027,1 hPa 0,0 l/m 2 min 0 min 554 W/m 10,5 km/h (2 Bft)
20.04.2015 10:16 12,0 C 11,7 C 70 % 1027,2 hPa 0,0 l/m 2 min 0 min 559 W/m 14,6 km/h (3 Bft)
20.04.2015 10:18 12,1 C 11,7 C 69 % 1027,1 hPa 0,0 l/m 2 min 0 min 564 W/m 8,4 km/h (2 Bft)
20.04.2015 10:20 12,2 C 11,7 C 69 % 1027,1 hPa 0,0 l/m 2 min 0 min 570 W/m 8,4 km/h (2 Bft)
20.04.2015 10:22 12,4 C 11,7 C 69 % 1027,0 hPa 0,0 l/m 2 min 0 min 575 W/m 8,4 km/h (2 Bft)
20.04.2015 10:24 12,5 C 12,2 C 69 % 1027,1 hPa 0,0 l/m 2 min 0 min 579 W/m 8,4 km/h (2 Bft)
20.04.2015 10:26 12,6 C 12,2 C 68 % 1027,1 hPa 0,0 l/m 2 min 0 min 584 W/m 12,6 km/h (3 Bft)
20.04.2015 10:28 12,7 C 12,2 C 68 % 1027,1 hPa 0,0 l/m 2 min 0 min 589 W/m 10,5 km/h (2 Bft)
20.04.2015 10:30 12,9 C 12,2 C 67 % 1027,1 hPa 0,0 l/m 2 min 0 min 594 W/m 10,5 km/h (2 Bft)
20.04.2015 10:32 13,0 C 12,8 C 67 % 1027,1 hPa 0,0 l/m 2 min 0 min 600 W/m 10,5 km/h (2 Bft)
20.04.2015 10:34 13,1 C 12,8 C 66 % 1027,2 hPa 0,0 l/m 2 min 0 min 604 W/m 14,6 km/h (3 Bft)
20.04.2015 10:36 13,3 C 12,8 C 67 % 1027,2 hPa 0,0 l/m 2 min 0 min 608 W/m 10,5 km/h (2 Bft)
20.04.2015 10:38 13,4 C 12,8 C 66 % 1027,2 hPa 0,0 l/m 2 min 0 min 613 W/m 14,6 km/h (3 Bft)
20.04.2015 10:40 13,6 C 12,8 C 64 % 1027,2 hPa 0,0 l/m 2 min 0 min 615 W/m 14,6 km/h (3 Bft)
20.04.2015 10:42 13,7 C 12,8 C 64 % 1027,2 hPa 0,0 l/m 2 min 0 min 621 W/m 12,6 km/h (3 Bft)
20.04.2015 10:44 13,8 C 12,8 C 63 % 1027,2 hPa 0,0 l/m 2 min 0 min 623 W/m 18,8 km/h (3 Bft)
20.04.2015 10:46 13,9 C 12,8 C 62 % 1027,2 hPa 0,0 l/m 2 min 0 min 627 W/m 12,6 km/h (3 Bft)
20.04.2015 10:48 13,9 C 12,8 C 62 % 1027,2 hPa 0,0 l/m 2 min 0 min 631 W/m 14,6 km/h (3 Bft)
20.04.2015 10:50 14,1 C 13,3 C 63 % 1027,3 hPa 0,0 l/m 2 min 0 min 629 W/m 16,7 km/h (3 Bft)
20.04.2015 10:52 14,2 C 13,3 C 62 % 1027,2 hPa 0,0 l/m 2 min 0 min 636 W/m 10,5 km/h (2 Bft)
20.04.2015 10:54 14,2 C 13,3 C 61 % 1027,3 hPa 0,0 l/m 2 min 0 min 638 W/m 12,6 km/h (3 Bft)
20.04.2015 10:56 14,3 C 13,9 C 62 % 1027,2 hPa 0,0 l/m 2 min 0 min 641 W/m 10,5 km/h (2 Bft)
20.04.2015 10:58 14,4 C 13,9 C 62 % 1027,3 hPa 0,0 l/m 2 min 0 min 648 W/m 12,6 km/h (3 Bft)
20.04.2015 11:00 14,6 C 13,9 C 61 % 1027,2 hPa 0,0 l/m 2 min 0 min 649 W/m 8,4 km/h (2 Bft)
20.04.2015 11:02 14,6 C 13,9 C 60 % 1027,3 hPa 0,0 l/m 2 min 0 min 648 W/m 16,7 km/h (3 Bft)
20.04.2015 11:04 14,7 C 13,9 C 59 % 1027,3 hPa 0,0 l/m 2 min 0 min 653 W/m 12,6 km/h (3 Bft)
20.04.2015 11:06 14,8 C 13,9 C 60 % 1027,3 hPa 0,0 l/m 2 min 0 min 653 W/m 18,8 km/h (3 Bft)
20.04.2015 11:08 14,8 C 13,9 C 59 % 1027,3 hPa 0,0 l/m 2 min 0 min 658 W/m 14,6 km/h (3 Bft)
20.04.2015 11:10 14,9 C 13,9 C 60 % 1027,3 hPa 0,0 l/m 2 min 0 min 658 W/m 14,6 km/h (3 Bft)
20.04.2015 11:12 15,0 C 14,4 C 60 % 1027,3 hPa 0,0 l/m 2 min 0 min 661 W/m 18,8 km/h (3 Bft)
20.04.2015 11:14 15,1 C 14,4 C 57 % 1027,4 hPa 0,0 l/m 2 min 0 min 663 W/m 23,0 km/h (4 Bft)
20.04.2015 11:16 15,2 C 14,4 C 55 % 1027,4 hPa 0,0 l/m 2 min 0 min 661 W/m 16,7 km/h (3 Bft)
20.04.2015 11:18 15,3 C 14,4 C 55 % 1027,3 hPa 0,0 l/m 2 min 0 min 669 W/m 16,7 km/h (3 Bft)
20.04.2015 11:20 15,3 C 14,4 C 54 % 1027,4 hPa 0,0 l/m 2 min 0 min 670 W/m 18,8 km/h (3 Bft)
20.04.2015 11:22 15,4 C 14,4 C 53 % 1027,4 hPa 0,0 l/m 2 min 0 min 688 W/m 25,1 km/h (4 Bft)
20.04.2015 11:24 15,4 C 14,4 C 52 % 1027,5 hPa 0,0 l/m 2 min 0 min 691 W/m 25,1 km/h (4 Bft)
20.04.2015 11:26 15,5 C 14,4 C 51 % 1027,5 hPa 0,0 l/m 2 min 0 min 698 W/m 27,2 km/h (4 Bft)
20.04.2015 11:28 15,6 C 14,4 C 52 % 1027,5 hPa 0,0 l/m 2 min 0 min 701 W/m 25,1 km/h (4 Bft)
20.04.2015 11:30 15,7 C 15,0 C 52 % 1027,4 hPa 0,0 l/m 2 min 0 min 701 W/m 16,7 km/h (3 Bft)
20.04.2015 11:32 15,8 C 15,0 C 52 % 1027,5 hPa 0,0 l/m 2 min 0 min 705 W/m 23,0 km/h (4 Bft)
20.04.2015 11:34 15,9 C 15,0 C 52 % 1027,4 hPa 0,0 l/m 2 min 0 min 703 W/m 14,6 km/h (3 Bft)
20.04.2015 11:36 15,9 C 15,0 C 52 % 1027,4 hPa 0,0 l/m 2 min 0 min 708 W/m 25,1 km/h (4 Bft)
20.04.2015 11:38 16,0 C 15,0 C 52 % 1027,4 hPa 0,0 l/m 2 min 0 min 709 W/m 27,2 km/h (4 Bft)
20.04.2015 11:40 16,0 C 15,0 C 51 % 1027,5 hPa 0,0 l/m 2 min 0 min 714 W/m 27,2 km/h (4 Bft)
20.04.2015 11:42 16,1 C 15,0 C 51 % 1027,4 hPa 0,0 l/m 2 min 0 min 717 W/m 27,2 km/h (4 Bft)
20.04.2015 11:44 16,1 C 15,0 C 51 % 1027,4 hPa 0,0 l/m 2 min 0 min 720 W/m 20,9 km/h (4 Bft)
20.04.2015 11:46 16,1 C 15,0 C 51 % 1027,4 hPa 0,0 l/m 2 min 0 min 722 W/m 31,4 km/h (5 Bft)
20.04.2015 11:48 16,1 C 15,0 C 51 % 1027,5 hPa 0,0 l/m 2 min 0 min 724 W/m 25,1 km/h (4 Bft)
20.04.2015 11:50 16,2 C 15,0 C 51 % 1027,5 hPa 0,0 l/m 2 min 0 min 720 W/m 18,8 km/h (3 Bft)
20.04.2015 11:52 16,2 C 15,0 C 51 % 1027,5 hPa 0,0 l/m 2 min 0 min 728 W/m 20,9 km/h (4 Bft)
20.04.2015 11:54 16,2 C 15,6 C 51 % 1027,5 hPa 0,0 l/m 2 min 0 min 721 W/m 16,7 km/h (3 Bft)
20.04.2015 11:56 16,4 C 15,6 C 51 % 1027,6 hPa 0,0 l/m 2 min 0 min 649 W/m 18,8 km/h (3 Bft)
20.04.2015 11:58 16,5 C 16,1 C 52 % 1027,5 hPa 0,0 l/m 2 min 0 min 608 W/m 20,9 km/h (4 Bft)
20.04.2015 12:00 16,6 C 15,6 C 51 % 1027,5 hPa 0,0 l/m 0 min 0 min 280 W/m 20,9 km/h (4 Bft)
20.04.2015 12:02 16,7 C 15,6 C 50 % 1027,7 hPa 0,0 l/m 0 min 0 min 125 W/m 29,3 km/h (5 Bft)
20.04.2015 12:04 16,7 C 15,6 C 49 % 1027,5 hPa 0,0 l/m 0 min 0 min 182 W/m 29,3 km/h (5 Bft)
20.04.2015 12:06 16,7 C 15,6 C 49 % 1027,6 hPa 0,0 l/m 0 min 0 min 189 W/m 25,1 km/h (4 Bft)
20.04.2015 12:08 16,7 C 15,6 C 49 % 1027,6 hPa 0,0 l/m 0 min 0 min 128 W/m 18,8 km/h (3 Bft)
20.04.2015 12:10 16,7 C 15,6 C 49 % 1027,6 hPa 0,0 l/m 0 min 0 min 213 W/m 20,9 km/h (4 Bft)
20.04.2015 12:12 16,8 C 15,6 C 49 % 1027,6 hPa 0,0 l/m 2 min 0 min 732 W/m 29,3 km/h (5 Bft)
20.04.2015 12:14 16,8 C 15,6 C 50 % 1027,6 hPa 0,0 l/m 2 min 0 min 747 W/m 27,2 km/h (4 Bft)
20.04.2015 12:16 16,8 C 16,1 C 50 % 1027,6 hPa 0,0 l/m 2 min 0 min 749 W/m 20,9 km/h (4 Bft)
20.04.2015 12:18 16,9 C 16,1 C 50 % 1027,6 hPa 0,0 l/m 2 min 0 min 748 W/m 18,8 km/h (3 Bft)
20.04.2015 12:20 17,0 C 16,1 C 50 % 1027,7 hPa 0,0 l/m 2 min 0 min 752 W/m 27,2 km/h (4 Bft)
20.04.2015 12:22 17,0 C 16,1 C 50 % 1027,6 hPa 0,0 l/m 2 min 0 min 758 W/m 23,0 km/h (4 Bft)
20.04.2015 12:24 17,1 C 16,1 C 50 % 1027,5 hPa 0,0 l/m 2 min 0 min 768 W/m 20,9 km/h (4 Bft)
20.04.2015 12:26 17,1 C 16,1 C 50 % 1027,5 hPa 0,0 l/m 2 min 0 min 775 W/m 20,9 km/h (4 Bft)
20.04.2015 12:28 17,1 C 16,1 C 49 % 1027,5 hPa 0,0 l/m 2 min 0 min 770 W/m 16,7 km/h (3 Bft)
20.04.2015 12:30 17,1 C 16,1 C 50 % 1027,5 hPa 0,0 l/m 2 min 0 min 768 W/m 16,7 km/h (3 Bft)
20.04.2015 12:32 17,1 C 16,1 C 51 % 1027,5 hPa 0,0 l/m 2 min 0 min 769 W/m 20,9 km/h (4 Bft)
20.04.2015 12:34 17,1 C 16,1 C 50 % 1027,4 hPa 0,0 l/m 2 min 0 min 772 W/m 16,7 km/h (3 Bft)
20.04.2015 12:36 17,2 C 16,1 C 50 % 1027,4 hPa 0,0 l/m 2 min 0 min 770 W/m 20,9 km/h (4 Bft)
20.04.2015 12:38 17,2 C 16,7 C 49 % 1027,4 hPa 0,0 l/m 2 min 0 min 777 W/m 16,7 km/h (3 Bft)
20.04.2015 12:40 17,3 C 16,7 C 50 % 1027,5 hPa 0,0 l/m 2 min 0 min 780 W/m 23,0 km/h (4 Bft)
20.04.2015 12:42 17,4 C 16,7 C 48 % 1027,4 hPa 0,0 l/m 2 min 0 min 783 W/m 20,9 km/h (4 Bft)
20.04.2015 12:44 17,4 C 16,7 C 47 % 1027,5 hPa 0,0 l/m 2 min 0 min 787 W/m 23,0 km/h (4 Bft)
20.04.2015 12:46 17,5 C 16,7 C 46 % 1027,5 hPa 0,0 l/m 2 min 0 min 787 W/m 29,3 km/h (5 Bft)
20.04.2015 12:48 17,4 C 16,7 C 46 % 1027,5 hPa 0,0 l/m 2 min 0 min 790 W/m 20,9 km/h (4 Bft)
20.04.2015 12:50 17,5 C 16,7 C 47 % 1027,6 hPa 0,0 l/m 2 min 0 min 791 W/m 20,9 km/h (4 Bft)
20.04.2015 12:52 17,6 C 17,2 C 46 % 1027,5 hPa 0,0 l/m 2 min 0 min 795 W/m 18,8 km/h (3 Bft)
20.04.2015 12:54 17,6 C 17,8 C 46 % 1027,6 hPa 0,0 l/m 2 min 0 min 794 W/m 27,2 km/h (4 Bft)
20.04.2015 12:56 17,7 C 18,3 C 45 % 1027,6 hPa 0,0 l/m 2 min 0 min 798 W/m 25,1 km/h (4 Bft)
20.04.2015 12:58 17,8 C 18,9 C 47 % 1027,7 hPa 0,0 l/m 2 min 0 min 798 W/m 27,2 km/h (4 Bft)
20.04.2015 13:00 17,9 C 18,9 C 44 % 1027,6 hPa 0,0 l/m 2 min 0 min 802 W/m 23,0 km/h (4 Bft)
20.04.2015 13:02 18,0 C 17,8 C 43 % 1027,6 hPa 0,0 l/m 2 min 0 min 801 W/m 23,0 km/h (4 Bft)
20.04.2015 13:04 18,1 C 17,2 C 42 % 1027,6 hPa 0,0 l/m 2 min 0 min 799 W/m 20,9 km/h (4 Bft)
20.04.2015 13:06 18,1 C 17,2 C 43 % 1027,6 hPa 0,0 l/m 2 min 0 min 801 W/m 20,9 km/h (4 Bft)
20.04.2015 13:08 18,1 C 17,2 C 42 % 1027,6 hPa 0,0 l/m 2 min 0 min 800 W/m 18,8 km/h (3 Bft)
20.04.2015 13:10 18,1 C 17,2 C 43 % 1027,5 hPa 0,0 l/m 2 min 0 min 802 W/m 14,6 km/h (3 Bft)
20.04.2015 13:12 18,1 C 17,2 C 43 % 1027,5 hPa 0,0 l/m 2 min 0 min 800 W/m 27,2 km/h (4 Bft)
20.04.2015 13:14 18,1 C 16,7 C 42 % 1027,5 hPa 0,0 l/m 2 min 0 min 802 W/m 29,3 km/h (5 Bft)
20.04.2015 13:16 18,0 C 16,7 C 42 % 1027,4 hPa 0,0 l/m 2 min 0 min 804 W/m 16,7 km/h (3 Bft)
20.04.2015 13:18 18,0 C 17,2 C 43 % 1027,3 hPa 0,0 l/m 2 min 0 min 799 W/m 20,9 km/h (4 Bft)
20.04.2015 13:20 17,9 C 16,7 C 43 % 1027,4 hPa 0,0 l/m 2 min 0 min 798 W/m 31,4 km/h (5 Bft)
20.04.2015 13:22 18,0 C 17,2 C 44 % 1027,4 hPa 0,0 l/m 2 min 0 min 800 W/m 23,0 km/h (4 Bft)
20.04.2015 13:24 18,0 C 17,2 C 45 % 1027,4 hPa 0,0 l/m 2 min 0 min 798 W/m 18,8 km/h (3 Bft)
20.04.2015 13:26 18,1 C 17,2 C 43 % 1027,4 hPa 0,0 l/m 2 min 0 min 803 W/m 18,8 km/h (3 Bft)
20.04.2015 13:28 18,1 C 16,7 C 42 % 1027,4 hPa 0,0 l/m 2 min 0 min 801 W/m 25,1 km/h (4 Bft)
20.04.2015 13:30 18,2 C 17,2 C 45 % 1027,4 hPa 0,0 l/m 2 min 0 min 796 W/m 29,3 km/h (5 Bft)
20.04.2015 13:32 18,3 C 17,2 C 43 % 1027,3 hPa 0,0 l/m 2 min 0 min 798 W/m 20,9 km/h (4 Bft)
20.04.2015 13:34 18,3 C 17,2 C 43 % 1027,3 hPa 0,0 l/m 2 min 0 min 801 W/m 18,8 km/h (3 Bft)
20.04.2015 13:36 18,3 C 17,2 C 43 % 1027,2 hPa 0,0 l/m 2 min 0 min 803 W/m 16,7 km/h (3 Bft)
20.04.2015 13:38 18,4 C 17,8 C 45 % 1027,3 hPa 0,0 l/m 2 min 0 min 801 W/m 20,9 km/h (4 Bft)
20.04.2015 13:40 18,5 C 17,8 C 44 % 1027,3 hPa 0,0 l/m 2 min 0 min 799 W/m 20,9 km/h (4 Bft)
20.04.2015 13:42 18,6 C 17,8 C 43 % 1027,3 hPa 0,0 l/m 2 min 0 min 799 W/m 14,6 km/h (3 Bft)
20.04.2015 13:44 18,6 C 17,8 C 44 % 1027,4 hPa 0,0 l/m 2 min 0 min 797 W/m 20,9 km/h (4 Bft)
20.04.2015 13:46 18,7 C 17,8 C 44 % 1027,4 hPa 0,0 l/m 2 min 0 min 796 W/m 20,9 km/h (4 Bft)
20.04.2015 13:48 18,8 C 17,8 C 42 % 1027,3 hPa 0,0 l/m 2 min 0 min 796 W/m 27,2 km/h (4 Bft)
20.04.2015 13:50 18,7 C 17,2 C 42 % 1027,2 hPa 0,0 l/m 2 min 0 min 797 W/m 20,9 km/h (4 Bft)
20.04.2015 13:52 18,7 C 17,2 C 43 % 1027,2 hPa 0,0 l/m 2 min 0 min 796 W/m 23,0 km/h (4 Bft)
20.04.2015 13:54 18,7 C 17,8 C 44 % 1027,2 hPa 0,0 l/m 2 min 0 min 796 W/m 14,6 km/h (3 Bft)
20.04.2015 13:56 18,7 C 17,8 C 45 % 1027,2 hPa 0,0 l/m 2 min 0 min 792 W/m 20,9 km/h (4 Bft)
20.04.2015 13:58 18,8 C 18,3 C 45 % 1027,2 hPa 0,0 l/m 2 min 0 min 790 W/m 16,7 km/h (3 Bft)
20.04.2015 14:00 18,8 C 17,8 C 44 % 1027,2 hPa 0,0 l/m 2 min 0 min 787 W/m 14,6 km/h (3 Bft)
20.04.2015 14:02 18,8 C 17,8 C 44 % 1027,2 hPa 0,0 l/m 2 min 0 min 787 W/m 25,1 km/h (4 Bft)
20.04.2015 14:04 18,8 C 17,8 C 44 % 1027,1 hPa 0,0 l/m 2 min 0 min 787 W/m 25,1 km/h (4 Bft)
20.04.2015 14:06 18,8 C 17,8 C 45 % 1027,1 hPa 0,0 l/m 2 min 0 min 786 W/m 20,9 km/h (4 Bft)
20.04.2015 14:08 18,8 C 18,3 C 45 % 1027,1 hPa 0,0 l/m 2 min 0 min 785 W/m 16,7 km/h (3 Bft)
20.04.2015 14:10 18,8 C 17,8 C 45 % 1027,1 hPa 0,0 l/m 2 min 0 min 781 W/m 23,0 km/h (4 Bft)
20.04.2015 14:12 18,8 C 18,3 C 44 % 1027,0 hPa 0,0 l/m 2 min 0 min 784 W/m 20,9 km/h (4 Bft)
20.04.2015 14:14 18,8 C 18,3 C 44 % 1027,0 hPa 0,0 l/m 2 min 0 min 782 W/m 18,8 km/h (3 Bft)
20.04.2015 14:16 18,9 C 18,3 C 44 % 1027,1 hPa 0,0 l/m 2 min 0 min 782 W/m 23,0 km/h (4 Bft)
20.04.2015 14:18 18,8 C 18,3 C 44 % 1027,1 hPa 0,0 l/m 2 min 0 min 780 W/m 37,7 km/h (5 Bft)
20.04.2015 14:20 18,8 C 17,8 C 43 % 1027,1 hPa 0,0 l/m 2 min 0 min 777 W/m 29,3 km/h (5 Bft)
20.04.2015 14:22 18,7 C 18,9 C 45 % 1027,2 hPa 0,0 l/m 2 min 0 min 774 W/m 27,2 km/h (4 Bft)
20.04.2015 14:24 18,8 C 20,0 C 45 % 1027,1 hPa 0,0 l/m 2 min 0 min 775 W/m 23,0 km/h (4 Bft)
20.04.2015 14:26 18,8 C 21,7 C 46 % 1027,1 hPa 0,0 l/m 2 min 0 min 776 W/m 18,8 km/h (3 Bft)
20.04.2015 14:28 18,9 C 22,2 C 46 % 1027,1 hPa 0,0 l/m 2 min 0 min 754 W/m 20,9 km/h (4 Bft)
20.04.2015 14:30 19,0 C 22,8 C 46 % 1027,1 hPa 0,0 l/m 2 min 0 min 780 W/m 18,8 km/h (3 Bft)
20.04.2015 14:32 19,1 C 22,8 C 45 % 1027,1 hPa 0,0 l/m 2 min 0 min 766 W/m 27,2 km/h (4 Bft)
20.04.2015 14:34 19,1 C 23,3 C 44 % 1027,1 hPa 0,0 l/m 2 min 0 min 767 W/m 16,7 km/h (3 Bft)
20.04.2015 14:36 19,1 C 23,3 C 44 % 1027,1 hPa 0,0 l/m 2 min 0 min 768 W/m 25,1 km/h (4 Bft)
20.04.2015 14:38 19,1 C 23,3 C 43 % 1027,2 hPa 0,0 l/m 2 min 0 min 762 W/m 25,1 km/h (4 Bft)
20.04.2015 14:40 19,1 C 23,3 C 43 % 1027,2 hPa 0,0 l/m 2 min 0 min 760 W/m 25,1 km/h (4 Bft)
20.04.2015 14:42 19,1 C 24,4 C 45 % 1027,1 hPa 0,0 l/m 2 min 0 min 757 W/m 14,6 km/h (3 Bft)
20.04.2015 14:44 19,1 C 23,9 C 43 % 1027,1 hPa 0,0 l/m 2 min 0 min 756 W/m 27,2 km/h (4 Bft)
20.04.2015 14:46 19,1 C 23,3 C 43 % 1027,1 hPa 0,0 l/m 2 min 0 min 753 W/m 27,2 km/h (4 Bft)
20.04.2015 14:48 19,0 C 22,8 C 43 % 1027,1 hPa 0,0 l/m 2 min 0 min 753 W/m 23,0 km/h (4 Bft)
20.04.2015 14:50 18,9 C 22,8 C 43 % 1027,1 hPa 0,0 l/m 2 min 0 min 751 W/m 27,2 km/h (4 Bft)
20.04.2015 14:52 18,9 C 22,8 C 43 % 1027,1 hPa 0,0 l/m 2 min 0 min 746 W/m 27,2 km/h (4 Bft)
20.04.2015 14:54 18,9 C 23,3 C 43 % 1027,0 hPa 0,0 l/m 2 min 0 min 746 W/m 14,6 km/h (3 Bft)
20.04.2015 14:56 18,9 C 24,4 C 43 % 1027,0 hPa 0,0 l/m 2 min 0 min 744 W/m 10,5 km/h (2 Bft)
20.04.2015 14:58 18,9 C 24,4 C 44 % 1027,0 hPa 0,0 l/m 2 min 0 min 742 W/m 14,6 km/h (3 Bft)
20.04.2015 15:00 18,9 C 24,4 C 45 % 1026,9 hPa 0,0 l/m 2 min 0 min 739 W/m 23,0 km/h (4 Bft)
20.04.2015 15:02 19,0 C 24,4 C 45 % 1027,0 hPa 0,0 l/m 2 min 0 min 738 W/m 25,1 km/h (4 Bft)
20.04.2015 15:04 19,1 C 25,0 C 45 % 1026,9 hPa 0,0 l/m 2 min 0 min 730 W/m 18,8 km/h (3 Bft)
20.04.2015 15:06 19,1 C 25,0 C 45 % 1026,9 hPa 0,0 l/m 2 min 0 min 730 W/m 23,0 km/h (4 Bft)
20.04.2015 15:08 19,2 C 25,0 C 45 % 1026,9 hPa 0,0 l/m 2 min 0 min 726 W/m 29,3 km/h (5 Bft)
20.04.2015 15:10 19,2 C 24,4 C 44 % 1026,9 hPa 0,0 l/m 2 min 0 min 724 W/m 23,0 km/h (4 Bft)
20.04.2015 15:12 19,2 C 25,0 C 44 % 1026,9 hPa 0,0 l/m 2 min 0 min 722 W/m 16,7 km/h (3 Bft)
20.04.2015 15:14 19,3 C 25,6 C 45 % 1026,9 hPa 0,0 l/m 2 min 0 min 721 W/m 12,6 km/h (3 Bft)
20.04.2015 15:16 19,3 C 25,6 C 43 % 1026,8 hPa 0,0 l/m 2 min 0 min 717 W/m 18,8 km/h (3 Bft)
20.04.2015 15:18 19,3 C 24,4 C 43 % 1026,9 hPa 0,0 l/m 2 min 0 min 713 W/m 29,3 km/h (5 Bft)
20.04.2015 15:20 19,3 C 25,0 C 43 % 1026,8 hPa 0,0 l/m 2 min 0 min 714 W/m 23,0 km/h (4 Bft)
20.04.2015 15:22 19,3 C 24,4 C 43 % 1026,8 hPa 0,0 l/m 2 min 0 min 709 W/m 31,4 km/h (5 Bft)
20.04.2015 15:24 19,3 C 24,4 C 43 % 1026,8 hPa 0,0 l/m 2 min 0 min 705 W/m 27,2 km/h (4 Bft)
20.04.2015 15:26 19,4 C 24,4 C 42 % 1026,9 hPa 0,0 l/m 2 min 0 min 703 W/m 25,1 km/h (4 Bft)
20.04.2015 15:28 19,4 C 25,0 C 43 % 1026,8 hPa 0,0 l/m 2 min 0 min 695 W/m 25,1 km/h (4 Bft)
20.04.2015 15:30 19,4 C 25,0 C 42 % 1026,8 hPa 0,0 l/m 2 min 0 min 700 W/m 27,2 km/h (4 Bft)
20.04.2015 15:32 19,4 C 25,6 C 42 % 1026,8 hPa 0,0 l/m 2 min 0 min 698 W/m 20,9 km/h (4 Bft)
20.04.2015 15:34 19,4 C 26,1 C 43 % 1026,8 hPa 0,0 l/m 2 min 0 min 691 W/m 20,9 km/h (4 Bft)
20.04.2015 15:36 19,6 C 26,1 C 42 % 1026,8 hPa 0,0 l/m 2 min 0 min 690 W/m 16,7 km/h (3 Bft)
20.04.2015 15:38 19,6 C 25,0 C 42 % 1026,8 hPa 0,0 l/m 2 min 0 min 685 W/m 16,7 km/h (3 Bft)
20.04.2015 15:40 19,7 C 25,6 C 43 % 1026,8 hPa 0,0 l/m 2 min 0 min 682 W/m 16,7 km/h (3 Bft)
20.04.2015 15:42 19,7 C 22,8 C 41 % 1026,8 hPa 0,0 l/m 2 min 0 min 679 W/m 29,3 km/h (5 Bft)
20.04.2015 15:44 19,7 C 22,2 C 42 % 1026,8 hPa 0,0 l/m 2 min 0 min 676 W/m 20,9 km/h (4 Bft)
20.04.2015 15:46 19,7 C 22,8 C 42 % 1026,8 hPa 0,0 l/m 2 min 0 min 670 W/m 27,2 km/h (4 Bft)
20.04.2015 15:48 19,7 C 20,6 C 42 % 1026,9 hPa 0,0 l/m 2 min 0 min 667 W/m 29,3 km/h (5 Bft)
20.04.2015 15:50 19,7 C 21,1 C 41 % 1026,8 hPa 0,0 l/m 2 min 0 min 662 W/m 16,7 km/h (3 Bft)
20.04.2015 15:52 19,6 C 22,8 C 41 % 1026,8 hPa 0,0 l/m 2 min 0 min 658 W/m 20,9 km/h (4 Bft)
20.04.2015 15:54 19,5 C 23,3 C 41 % 1026,8 hPa 0,0 l/m 2 min 0 min 651 W/m 27,2 km/h (4 Bft)
20.04.2015 15:56 19,4 C 23,9 C 42 % 1026,8 hPa 0,0 l/m 2 min 0 min 648 W/m 25,1 km/h (4 Bft)
20.04.2015 15:58 19,4 C 23,9 C 42 % 1026,8 hPa 0,0 l/m 2 min 0 min 646 W/m 23,0 km/h (4 Bft)
20.04.2015 16:00 19,4 C 21,1 C 43 % 1026,9 hPa 0,0 l/m 2 min 0 min 642 W/m 29,3 km/h (5 Bft)
20.04.2015 16:02 19,3 C 19,4 C 43 % 1026,8 hPa 0,0 l/m 2 min 0 min 636 W/m 20,9 km/h (4 Bft)
20.04.2015 16:04 19,4 C 19,4 C 43 % 1026,7 hPa 0,0 l/m 2 min 0 min 633 W/m 27,2 km/h (4 Bft)
20.04.2015 16:06 19,3 C 21,1 C 43 % 1026,7 hPa 0,0 l/m 2 min 0 min 631 W/m 29,3 km/h (5 Bft)
20.04.2015 16:08 19,3 C 22,2 C 42 % 1026,7 hPa 0,0 l/m 2 min 0 min 628 W/m 20,9 km/h (4 Bft)
20.04.2015 16:10 19,3 C 23,3 C 42 % 1026,6 hPa 0,0 l/m 2 min 0 min 622 W/m 29,3 km/h (5 Bft)
20.04.2015 16:12 19,3 C 23,9 C 42 % 1026,6 hPa 0,0 l/m 2 min 0 min 619 W/m 29,3 km/h (5 Bft)
20.04.2015 16:14 19,2 C 24,4 C 43 % 1026,5 hPa 0,0 l/m 2 min 0 min 614 W/m 25,1 km/h (4 Bft)
20.04.2015 16:16 19,2 C 23,9 C 42 % 1026,5 hPa 0,0 l/m 2 min 0 min 610 W/m 27,2 km/h (4 Bft)
20.04.2015 16:18 19,2 C 24,4 C 43 % 1026,5 hPa 0,0 l/m 2 min 0 min 607 W/m 20,9 km/h (4 Bft)
20.04.2015 16:20 19,2 C 24,4 C 43 % 1026,6 hPa 0,0 l/m 2 min 0 min 602 W/m 23,0 km/h (4 Bft)
20.04.2015 16:22 19,2 C 25,0 C 43 % 1026,6 hPa 0,0 l/m 2 min 0 min 598 W/m 23,0 km/h (4 Bft)
20.04.2015 16:24 19,2 C 24,4 C 43 % 1026,6 hPa 0,0 l/m 2 min 0 min 593 W/m 23,0 km/h (4 Bft)
20.04.2015 16:26 19,3 C 25,6 C 43 % 1026,6 hPa 0,0 l/m 2 min 0 min 587 W/m 20,9 km/h (4 Bft)
20.04.2015 16:28 19,3 C 25,0 C 43 % 1026,6 hPa 0,0 l/m 2 min 0 min 582 W/m 23,0 km/h (4 Bft)
20.04.2015 16:30 19,3 C 24,4 C 42 % 1026,5 hPa 0,0 l/m 2 min 0 min 579 W/m 31,4 km/h (5 Bft)
20.04.2015 16:32 19,3 C 25,0 C 42 % 1026,5 hPa 0,0 l/m 2 min 0 min 573 W/m 25,1 km/h (4 Bft)
20.04.2015 16:34 19,3 C 22,2 C 42 % 1026,5 hPa 0,0 l/m 2 min 0 min 570 W/m 20,9 km/h (4 Bft)
20.04.2015 16:36 19,4 C 20,6 C 42 % 1026,5 hPa 0,0 l/m 2 min 0 min 568 W/m 23,0 km/h (4 Bft)
20.04.2015 16:38 19,4 C 20,0 C 42 % 1026,5 hPa 0,0 l/m 2 min 0 min 565 W/m 31,4 km/h (5 Bft)
20.04.2015 16:40 19,4 C 18,9 C 42 % 1026,5 hPa 0,0 l/m 2 min 0 min 559 W/m 33,5 km/h (5 Bft)
20.04.2015 16:42 19,3 C 18,3 C 42 % 1026,5 hPa 0,0 l/m 2 min 0 min 553 W/m 25,1 km/h (4 Bft)
20.04.2015 16:44 19,3 C 18,3 C 42 % 1026,6 hPa 0,0 l/m 2 min 0 min 546 W/m 29,3 km/h (5 Bft)
20.04.2015 16:46 19,3 C 18,3 C 43 % 1026,6 hPa 0,0 l/m 2 min 0 min 543 W/m 23,0 km/h (4 Bft)
20.04.2015 16:48 19,3 C 18,3 C 43 % 1026,5 hPa 0,0 l/m 2 min 0 min 540 W/m 29,3 km/h (5 Bft)
20.04.2015 16:50 19,4 C 18,9 C 43 % 1026,6 hPa 0,0 l/m 2 min 0 min 535 W/m 29,3 km/h (5 Bft)
20.04.2015 16:52 19,4 C 18,9 C 43 % 1026,6 hPa 0,0 l/m 2 min 0 min 531 W/m 20,9 km/h (4 Bft)
20.04.2015 16:54 19,4 C 18,9 C 43 % 1026,6 hPa 0,0 l/m 2 min 0 min 525 W/m 25,1 km/h (4 Bft)
20.04.2015 16:56 19,5 C 18,3 C 42 % 1026,5 hPa 0,0 l/m 2 min 0 min 519 W/m 29,3 km/h (5 Bft)
20.04.2015 16:58 19,4 C 17,8 C 40 % 1026,5 hPa 0,0 l/m 2 min 0 min 516 W/m 27,2 km/h (4 Bft)
20.04.2015 17:00 19,4 C 17,8 C 41 % 1026,5 hPa 0,0 l/m 2 min 0 min 512 W/m 20,9 km/h (4 Bft)
20.04.2015 17:02 19,4 C 17,8 C 41 % 1026,5 hPa 0,0 l/m 2 min 0 min 504 W/m 18,8 km/h (3 Bft)
20.04.2015 17:04 19,5 C 17,8 C 41 % 1026,4 hPa 0,0 l/m 2 min 0 min 499 W/m 20,9 km/h (4 Bft)
20.04.2015 17:06 19,5 C 17,8 C 42 % 1026,4 hPa 0,0 l/m 2 min 0 min 493 W/m 31,4 km/h (5 Bft)
20.04.2015 17:08 19,5 C 17,8 C 41 % 1026,4 hPa 0,0 l/m 2 min 0 min 489 W/m 27,2 km/h (4 Bft)
20.04.2015 17:10 19,5 C 17,8 C 41 % 1026,5 hPa 0,0 l/m 2 min 0 min 486 W/m 27,2 km/h (4 Bft)
20.04.2015 17:12 19,5 C 17,8 C 42 % 1026,4 hPa 0,0 l/m 2 min 0 min 481 W/m 20,9 km/h (4 Bft)
20.04.2015 17:14 19,4 C 17,8 C 42 % 1026,3 hPa 0,0 l/m 2 min 0 min 476 W/m 29,3 km/h (5 Bft)
20.04.2015 17:16 19,4 C 17,2 C 42 % 1026,5 hPa 0,0 l/m 2 min 0 min 471 W/m 25,1 km/h (4 Bft)
20.04.2015 17:18 19,4 C 17,2 C 42 % 1026,4 hPa 0,0 l/m 2 min 0 min 467 W/m 31,4 km/h (5 Bft)
20.04.2015 17:20 19,3 C 17,2 C 43 % 1026,5 hPa 0,0 l/m 2 min 0 min 462 W/m 23,0 km/h (4 Bft)
20.04.2015 17:22 19,3 C 17,2 C 42 % 1026,4 hPa 0,0 l/m 2 min 0 min 456 W/m 20,9 km/h (4 Bft)
20.04.2015 17:24 19,4 C 17,2 C 42 % 1026,4 hPa 0,0 l/m 2 min 0 min 451 W/m 16,7 km/h (3 Bft)
20.04.2015 17:26 19,4 C 17,2 C 43 % 1026,5 hPa 0,0 l/m 2 min 0 min 446 W/m 18,8 km/h (3 Bft)
20.04.2015 17:28 19,4 C 17,2 C 44 % 1026,4 hPa 0,0 l/m 2 min 0 min 441 W/m 29,3 km/h (5 Bft)
20.04.2015 17:30 19,4 C 17,2 C 43 % 1026,3 hPa 0,0 l/m 2 min 0 min 433 W/m 27,2 km/h (4 Bft)
20.04.2015 17:32 19,4 C 17,2 C 43 % 1026,4 hPa 0,0 l/m 2 min 0 min 430 W/m 29,3 km/h (5 Bft)
20.04.2015 17:34 19,4 C 16,7 C 43 % 1026,4 hPa 0,0 l/m 2 min 0 min 424 W/m 23,0 km/h (4 Bft)
20.04.2015 17:36 19,4 C 16,7 C 42 % 1026,4 hPa 0,0 l/m 2 min 0 min 419 W/m 18,8 km/h (3 Bft)
20.04.2015 17:38 19,4 C 16,7 C 43 % 1026,3 hPa 0,0 l/m 2 min 0 min 415 W/m 27,2 km/h (4 Bft)
20.04.2015 17:40 19,3 C 16,7 C 42 % 1026,4 hPa 0,0 l/m 2 min 0 min 410 W/m 29,3 km/h (5 Bft)
20.04.2015 17:42 19,3 C 16,7 C 43 % 1026,3 hPa 0,0 l/m 2 min 0 min 404 W/m 33,5 km/h (5 Bft)
20.04.2015 17:44 19,3 C 16,7 C 43 % 1026,3 hPa 0,0 l/m 2 min 0 min 399 W/m 20,9 km/h (4 Bft)
20.04.2015 17:46 19,2 C 16,7 C 43 % 1026,4 hPa 0,0 l/m 2 min 0 min 392 W/m 27,2 km/h (4 Bft)
20.04.2015 17:48 19,2 C 16,7 C 43 % 1026,4 hPa 0,0 l/m 2 min 0 min 389 W/m 23,0 km/h (4 Bft)
20.04.2015 17:50 19,1 C 16,7 C 44 % 1026,3 hPa 0,0 l/m 2 min 0 min 381 W/m 29,3 km/h (5 Bft)
20.04.2015 17:52 19,1 C 16,7 C 43 % 1026,2 hPa 0,0 l/m 2 min 0 min 378 W/m 23,0 km/h (4 Bft)
20.04.2015 17:54 19,1 C 16,7 C 43 % 1026,3 hPa 0,0 l/m 2 min 0 min 375 W/m 23,0 km/h (4 Bft)
20.04.2015 17:56 19,1 C 16,7 C 44 % 1026,2 hPa 0,0 l/m 2 min 0 min 368 W/m 23,0 km/h (4 Bft)
20.04.2015 17:58 19,1 C 16,7 C 44 % 1026,3 hPa 0,0 l/m 2 min 0 min 359 W/m 23,0 km/h (4 Bft)
20.04.2015 18:00 19,1 C 16,7 C 45 % 1026,3 hPa 0,0 l/m 2 min 0 min 353 W/m 23,0 km/h (4 Bft)
20.04.2015 18:02 19,1 C 16,7 C 44 % 1026,2 hPa 0,0 l/m 2 min 0 min 354 W/m 31,4 km/h (5 Bft)
20.04.2015 18:04 19,1 C 16,7 C 44 % 1026,2 hPa 0,0 l/m 2 min 0 min 350 W/m 29,3 km/h (5 Bft)
20.04.2015 18:06 19,0 C 16,7 C 44 % 1026,4 hPa 0,0 l/m 2 min 0 min 344 W/m 33,5 km/h (5 Bft)
20.04.2015 18:08 18,9 C 16,7 C 44 % 1026,3 hPa 0,0 l/m 2 min 0 min 338 W/m 27,2 km/h (4 Bft)
20.04.2015 18:10 18,9 C 16,1 C 45 % 1026,4 hPa 0,0 l/m 2 min 0 min 334 W/m 25,1 km/h (4 Bft)
20.04.2015 18:12 18,9 C 16,1 C 45 % 1026,4 hPa 0,0 l/m 2 min 0 min 325 W/m 25,1 km/h (4 Bft)
20.04.2015 18:14 18,9 C 16,1 C 45 % 1026,4 hPa 0,0 l/m 2 min 0 min 301 W/m 20,9 km/h (4 Bft)
20.04.2015 18:16 18,9 C 16,1 C 45 % 1026,3 hPa 0,0 l/m 2 min 0 min 303 W/m 23,0 km/h (4 Bft)
20.04.2015 18:18 18,9 C 16,1 C 44 % 1026,4 hPa 0,0 l/m 2 min 0 min 301 W/m 20,9 km/h (4 Bft)
20.04.2015 18:20 18,9 C 16,1 C 45 % 1026,4 hPa 0,0 l/m 2 min 0 min 303 W/m 27,2 km/h (4 Bft)
20.04.2015 18:22 18,9 C 16,1 C 46 % 1026,4 hPa 0,0 l/m 2 min 0 min 292 W/m 35,6 km/h (5 Bft)
20.04.2015 18:24 18,8 C 16,1 C 45 % 1026,4 hPa 0,0 l/m 2 min 0 min 285 W/m 33,5 km/h (5 Bft)
20.04.2015 18:26 18,8 C 16,1 C 45 % 1026,4 hPa 0,0 l/m 2 min 0 min 265 W/m 20,9 km/h (4 Bft)
20.04.2015 18:28 18,8 C 16,1 C 46 % 1026,4 hPa 0,0 l/m 2 min 0 min 268 W/m 25,1 km/h (4 Bft)
20.04.2015 18:30 18,8 C 16,1 C 45 % 1026,5 hPa 0,0 l/m 2 min 0 min 278 W/m 31,4 km/h (5 Bft)
20.04.2015 18:32 18,8 C 16,1 C 46 % 1026,4 hPa 0,0 l/m 2 min 0 min 259 W/m 29,3 km/h (5 Bft)
20.04.2015 18:34 18,7 C 16,1 C 46 % 1026,4 hPa 0,0 l/m 2 min 0 min 260 W/m 20,9 km/h (4 Bft)
20.04.2015 18:36 18,7 C 16,1 C 46 % 1026,3 hPa 0,0 l/m 2 min 0 min 256 W/m 25,1 km/h (4 Bft)
20.04.2015 18:38 18,7 C 16,1 C 46 % 1026,4 hPa 0,0 l/m 2 min 0 min 248 W/m 27,2 km/h (4 Bft)
20.04.2015 18:40 18,7 C 16,1 C 46 % 1026,4 hPa 0,0 l/m 2 min 0 min 241 W/m 25,1 km/h (4 Bft)
20.04.2015 18:42 18,7 C 16,1 C 46 % 1026,3 hPa 0,0 l/m 2 min 0 min 235 W/m 20,9 km/h (4 Bft)
20.04.2015 18:44 18,7 C 16,1 C 46 % 1026,4 hPa 0,0 l/m 2 min 0 min 226 W/m 18,8 km/h (3 Bft)
20.04.2015 18:46 18,6 C 16,1 C 47 % 1026,3 hPa 0,0 l/m 2 min 0 min 219 W/m 14,6 km/h (3 Bft)
20.04.2015 18:48 18,6 C 16,1 C 47 % 1026,3 hPa 0,0 l/m 2 min 0 min 212 W/m 18,8 km/h (3 Bft)
20.04.2015 18:50 18,6 C 16,1 C 47 % 1026,3 hPa 0,0 l/m 2 min 0 min 199 W/m 20,9 km/h (4 Bft)
20.04.2015 18:52 18,6 C 16,1 C 47 % 1026,4 hPa 0,0 l/m 2 min 0 min 194 W/m 27,2 km/h (4 Bft)
20.04.2015 18:54 18,6 C 16,1 C 47 % 1026,3 hPa 0,0 l/m 2 min 0 min 195 W/m 20,9 km/h (4 Bft)
20.04.2015 18:56 18,5 C 16,1 C 47 % 1026,4 hPa 0,0 l/m 2 min 0 min 187 W/m 20,9 km/h (4 Bft)
20.04.2015 18:58 18,5 C 16,1 C 48 % 1026,4 hPa 0,0 l/m 2 min 0 min 184 W/m 27,2 km/h (4 Bft)
20.04.2015 19:00 18,4 C 16,1 C 47 % 1026,3 hPa 0,0 l/m 2 min 0 min 181 W/m 27,2 km/h (4 Bft)
20.04.2015 19:02 18,4 C 16,1 C 47 % 1026,3 hPa 0,0 l/m 2 min 0 min 171 W/m 20,9 km/h (4 Bft)
20.04.2015 19:04 18,4 C 15,6 C 48 % 1026,3 hPa 0,0 l/m 2 min 0 min 135 W/m 20,9 km/h (4 Bft)
20.04.2015 19:06 18,4 C 15,6 C 48 % 1026,3 hPa 0,0 l/m 2 min 0 min 130 W/m 27,2 km/h (4 Bft)
20.04.2015 19:08 18,4 C 15,6 C 48 % 1026,4 hPa 0,0 l/m 2 min 0 min 129 W/m 20,9 km/h (4 Bft)
20.04.2015 19:10 18,3 C 15,6 C 48 % 1026,3 hPa 0,0 l/m 2 min 0 min 122 W/m 23,0 km/h (4 Bft)
20.04.2015 19:12 18,3 C 15,6 C 48 % 1026,3 hPa 0,0 l/m 0 min 0 min 89 W/m 20,9 km/h (4 Bft)
20.04.2015 19:14 18,3 C 15,6 C 48 % 1026,4 hPa 0,0 l/m 0 min 0 min 79 W/m 25,1 km/h (4 Bft)
20.04.2015 19:16 18,2 C 15,6 C 48 % 1026,3 hPa 0,0 l/m 0 min 0 min 81 W/m 23,0 km/h (4 Bft)
20.04.2015 19:18 18,2 C 15,6 C 48 % 1026,3 hPa 0,0 l/m 0 min 0 min 74 W/m 18,8 km/h (3 Bft)
20.04.2015 19:20 18,2 C 15,6 C 48 % 1026,4 hPa 0,0 l/m 0 min 0 min 73 W/m 18,8 km/h (3 Bft)
20.04.2015 19:22 18,1 C 15,6 C 48 % 1026,3 hPa 0,0 l/m 0 min 0 min 73 W/m 20,9 km/h (4 Bft)
20.04.2015 19:24 18,1 C 15,6 C 48 % 1026,4 hPa 0,0 l/m 0 min 0 min 70 W/m 18,8 km/h (3 Bft)
20.04.2015 19:26 18,1 C 15,6 C 48 % 1026,3 hPa 0,0 l/m 0 min 0 min 66 W/m 18,8 km/h (3 Bft)
20.04.2015 19:28 18,1 C 15,6 C 48 % 1026,4 hPa 0,0 l/m 0 min 0 min 65 W/m 14,6 km/h (3 Bft)
20.04.2015 19:30 18,1 C 15,6 C 49 % 1026,4 hPa 0,0 l/m 0 min 0 min 61 W/m 16,7 km/h (3 Bft)
20.04.2015 19:32 18,1 C 15,6 C 49 % 1026,4 hPa 0,0 l/m 0 min 0 min 59 W/m 23,0 km/h (4 Bft)
20.04.2015 19:34 18,0 C 15,6 C 49 % 1026,5 hPa 0,0 l/m 0 min 0 min 57 W/m 16,7 km/h (3 Bft)
20.04.2015 19:36 18,0 C 15,6 C 49 % 1026,5 hPa 0,0 l/m 0 min 0 min 56 W/m 14,6 km/h (3 Bft)
20.04.2015 19:38 17,9 C 15,0 C 50 % 1026,5 hPa 0,0 l/m 0 min 0 min 54 W/m 12,6 km/h (3 Bft)
20.04.2015 19:40 17,9 C 15,0 C 49 % 1026,6 hPa 0,0 l/m 0 min 0 min 54 W/m 20,9 km/h (4 Bft)
20.04.2015 19:42 17,9 C 15,0 C 50 % 1026,6 hPa 0,0 l/m 0 min 0 min 53 W/m 16,7 km/h (3 Bft)
20.04.2015 19:44 17,9 C 15,0 C 50 % 1026,6 hPa 0,0 l/m 0 min 0 min 49 W/m 16,7 km/h (3 Bft)
20.04.2015 19:46 17,8 C 15,0 C 50 % 1026,6 hPa 0,0 l/m 0 min 0 min 49 W/m 14,6 km/h (3 Bft)
20.04.2015 19:48 17,8 C 15,0 C 50 % 1026,6 hPa 0,0 l/m 0 min 0 min 47 W/m 12,6 km/h (3 Bft)
20.04.2015 19:50 17,7 C 15,0 C 50 % 1026,6 hPa 0,0 l/m 0 min 0 min 45 W/m 12,6 km/h (3 Bft)
20.04.2015 19:52 17,7 C 15,0 C 51 % 1026,6 hPa 0,0 l/m 0 min 0 min 42 W/m 10,5 km/h (2 Bft)
20.04.2015 19:54 17,6 C 15,0 C 51 % 1026,6 hPa 0,0 l/m 0 min 0 min 41 W/m 18,8 km/h (3 Bft)
20.04.2015 19:56 17,6 C 14,4 C 51 % 1026,6 hPa 0,0 l/m 0 min 0 min 39 W/m 14,6 km/h (3 Bft)
20.04.2015 19:58 17,5 C 14,4 C 51 % 1026,6 hPa 0,0 l/m 0 min 0 min 37 W/m 10,5 km/h (2 Bft)
20.04.2015 20:00 17,4 C 14,4 C 51 % 1026,7 hPa 0,0 l/m 0 min 0 min 35 W/m 12,6 km/h (3 Bft)
20.04.2015 20:02 17,4 C 14,4 C 52 % 1026,7 hPa 0,0 l/m 0 min 0 min 33 W/m 12,6 km/h (3 Bft)
20.04.2015 20:04 17,3 C 14,4 C 52 % 1026,7 hPa 0,0 l/m 0 min 0 min 32 W/m 14,6 km/h (3 Bft)
20.04.2015 20:06 17,3 C 14,4 C 52 % 1026,8 hPa 0,0 l/m 0 min 0 min 31 W/m 12,6 km/h (3 Bft)
20.04.2015 20:08 17,2 C 13,9 C 52 % 1026,7 hPa 0,0 l/m 2 min 0 min 30 W/m 12,6 km/h (3 Bft)
20.04.2015 20:10 17,2 C 13,9 C 52 % 1026,7 hPa 0,0 l/m 2 min 0 min 28 W/m 10,5 km/h (2 Bft)
20.04.2015 20:12 17,2 C 13,9 C 52 % 1026,8 hPa 0,0 l/m 2 min 0 min 27 W/m 10,5 km/h (2 Bft)
20.04.2015 20:14 17,1 C 13,9 C 52 % 1026,8 hPa 0,0 l/m 2 min 0 min 25 W/m 10,5 km/h (2 Bft)
20.04.2015 20:16 17,1 C 13,9 C 52 % 1026,9 hPa 0,0 l/m 2 min 0 min 23 W/m 12,6 km/h (3 Bft)
20.04.2015 20:18 17,0 C 13,9 C 52 % 1026,8 hPa 0,0 l/m 2 min 0 min 22 W/m 10,5 km/h (2 Bft)
20.04.2015 20:20 16,9 C 13,9 C 53 % 1026,8 hPa 0,0 l/m 2 min 0 min 20 W/m 12,6 km/h (3 Bft)
20.04.2015 20:22 16,9 C 13,3 C 53 % 1026,9 hPa 0,0 l/m 2 min 0 min 18 W/m 10,5 km/h (2 Bft)
20.04.2015 20:24 16,9 C 13,3 C 53 % 1026,9 hPa 0,0 l/m 0 min 0 min 17 W/m 10,5 km/h (2 Bft)
20.04.2015 20:26 16,8 C 13,3 C 53 % 1026,9 hPa 0,0 l/m 0 min 0 min 15 W/m 10,5 km/h (2 Bft)
20.04.2015 20:28 16,7 C 13,3 C 53 % 1026,9 hPa 0,0 l/m 0 min 0 min 13 W/m 8,4 km/h (2 Bft)
20.04.2015 20:30 16,7 C 13,3 C 54 % 1026,9 hPa 0,0 l/m 0 min 0 min 12 W/m 8,4 km/h (2 Bft)
20.04.2015 20:32 16,7 C 13,3 C 54 % 1026,9 hPa 0,0 l/m 0 min 0 min 11 W/m 12,6 km/h (3 Bft)
20.04.2015 20:34 16,6 C 12,8 C 54 % 1026,9 hPa 0,0 l/m 0 min 0 min 9 W/m 10,5 km/h (2 Bft)
20.04.2015 20:36 16,6 C 12,8 C 54 % 1026,9 hPa 0,0 l/m 0 min 0 min 8 W/m 8,4 km/h (2 Bft)
20.04.2015 20:38 16,5 C 12,8 C 54 % 1026,9 hPa 0,0 l/m 0 min 0 min 7 W/m 8,4 km/h (2 Bft)
20.04.2015 20:40 16,4 C 12,8 C 54 % 1026,9 hPa 0,0 l/m 0 min 0 min 7 W/m 8,4 km/h (2 Bft)
20.04.2015 20:42 16,4 C 12,8 C 54 % 1026,9 hPa 0,0 l/m 0 min 0 min 5 W/m 10,5 km/h (2 Bft)
20.04.2015 20:44 16,3 C 12,8 C 54 % 1026,9 hPa 0,0 l/m 0 min 0 min 5 W/m 6,3 km/h (2 Bft)
20.04.2015 20:46 16,2 C 12,8 C 55 % 1027,0 hPa 0,0 l/m 0 min 0 min 5 W/m 8,4 km/h (2 Bft)
20.04.2015 20:48 16,2 C 12,8 C 55 % 1027,0 hPa 0,0 l/m 0 min 0 min 5 W/m 8,4 km/h (2 Bft)
20.04.2015 20:50 16,1 C 12,2 C 55 % 1027,1 hPa 0,0 l/m 0 min 0 min 5 W/m 6,3 km/h (2 Bft)
20.04.2015 20:52 16,1 C 12,2 C 55 % 1027,1 hPa 0,0 l/m 0 min 0 min 4 W/m 6,3 km/h (2 Bft)
20.04.2015 20:54 16,1 C 12,2 C 55 % 1027,0 hPa 0,0 l/m 0 min 0 min 0 W/m 6,3 km/h (2 Bft)
20.04.2015 20:56 15,9 C 11,7 C 56 % 1027,1 hPa 0,0 l/m 0 min 0 min 0 W/m 8,4 km/h (2 Bft)
20.04.2015 20:58 15,9 C 11,7 C 56 % 1027,1 hPa 0,0 l/m 0 min 0 min 0 W/m 6,3 km/h (2 Bft)
20.04.2015 21:00 15,8 C 11,7 C 56 % 1027,2 hPa 0,0 l/m 0 min 0 min 0 W/m 6,3 km/h (2 Bft)
20.04.2015 21:02 15,8 C 11,7 C 56 % 1027,2 hPa 0,0 l/m 0 min 0 min 0 W/m 6,3 km/h (2 Bft)
20.04.2015 21:04 15,7 C 11,1 C 56 % 1027,2 hPa 0,0 l/m 0 min 0 min 0 W/m 4,2 km/h (1 Bft)
20.04.2015 21:06 15,6 C 11,1 C 57 % 1027,2 hPa 0,0 l/m 0 min 0 min 0 W/m 6,3 km/h (2 Bft)
20.04.2015 21:08 15,6 C 11,1 C 57 % 1027,2 hPa 0,0 l/m 0 min 0 min 0 W/m 6,3 km/h (2 Bft)
20.04.2015 21:10 15,4 C 11,1 C 57 % 1027,2 hPa 0,0 l/m 0 min 0 min 0 W/m 6,3 km/h (2 Bft)
20.04.2015 21:12 15,4 C 10,6 C 57 % 1027,2 hPa 0,0 l/m 0 min 0 min 0 W/m 6,3 km/h (2 Bft)
20.04.2015 21:14 15,3 C 10,6 C 57 % 1027,2 hPa 0,0 l/m 0 min 0 min 0 W/m 6,3 km/h (2 Bft)
20.04.2015 21:16 15,2 C 10,6 C 57 % 1027,3 hPa 0,0 l/m 0 min 0 min 0 W/m 6,3 km/h (2 Bft)
20.04.2015 21:18 15,2 C 10,6 C 58 % 1027,3 hPa 0,0 l/m 0 min 0 min 0 W/m 4,2 km/h (1 Bft)
20.04.2015 21:20 15,1 C 10,6 C 58 % 1027,3 hPa 0,0 l/m 0 min 0 min 0 W/m 4,2 km/h (1 Bft)
20.04.2015 21:22 15,0 C 10,6 C 58 % 1027,3 hPa 0,0 l/m 0 min 0 min 0 W/m 6,3 km/h (2 Bft)
20.04.2015 21:24 14,9 C 10,6 C 58 % 1027,3 hPa 0,0 l/m 0 min 0 min 0 W/m 2,1 km/h (1 Bft)
20.04.2015 21:26 14,8 C 10,0 C 59 % 1027,3 hPa 0,0 l/m 0 min 0 min 0 W/m 4,2 km/h (1 Bft)
20.04.2015 21:28 14,7 C 10,0 C 59 % 1027,4 hPa 0,0 l/m 0 min 0 min 0 W/m 4,2 km/h (1 Bft)
20.04.2015 21:30 14,6 C 10,0 C 59 % 1027,4 hPa 0,0 l/m 0 min 0 min 0 W/m 4,2 km/h (1 Bft)
20.04.2015 21:32 14,6 C 10,0 C 59 % 1027,4 hPa 0,0 l/m 0 min 0 min 0 W/m 4,2 km/h (1 Bft)
20.04.2015 21:34 14,4 C 10,0 C 60 % 1027,4 hPa 0,0 l/m 0 min 0 min 0 W/m 4,2 km/h (1 Bft)
20.04.2015 21:36 14,3 C 10,0 C 60 % 1027,4 hPa 0,0 l/m 0 min 0 min 0 W/m 4,2 km/h (1 Bft)
20.04.2015 21:38 14,2 C 10,0 C 60 % 1027,4 hPa 0,0 l/m 0 min 0 min 0 W/m 4,2 km/h (1 Bft)
20.04.2015 21:40 14,2 C 10,0 C 61 % 1027,4 hPa 0,0 l/m 0 min 0 min 0 W/m 6,3 km/h (2 Bft)
20.04.2015 21:42 14,2 C 10,0 C 61 % 1027,4 hPa 0,0 l/m 0 min 0 min 0 W/m 4,2 km/h (1 Bft)
20.04.2015 21:44 14,1 C 10,0 C 61 % 1027,5 hPa 0,0 l/m 0 min 0 min 0 W/m 8,4 km/h (2 Bft)
20.04.2015 21:46 14,0 C 9,4 C 62 % 1027,5 hPa 0,0 l/m 0 min 0 min 0 W/m 6,3 km/h (2 Bft)
20.04.2015 21:48 13,9 C 9,4 C 62 % 1027,5 hPa 0,0 l/m 0 min 0 min 0 W/m 6,3 km/h (2 Bft)
20.04.2015 21:50 13,8 C 9,4 C 62 % 1027,6 hPa 0,0 l/m 0 min 0 min 0 W/m 4,2 km/h (1 Bft)
20.04.2015 21:52 13,7 C 9,4 C 62 % 1027,6 hPa 0,0 l/m 0 min 0 min 0 W/m 4,2 km/h (1 Bft)
20.04.2015 21:54 13,7 C 9,4 C 63 % 1027,6 hPa 0,0 l/m 0 min 0 min 0 W/m 4,2 km/h (1 Bft)
20.04.2015 21:56 13,6 C 9,4 C 63 % 1027,7 hPa 0,0 l/m 0 min 0 min 0 W/m 4,2 km/h (1 Bft)
20.04.2015 21:58 13,4 C 9,4 C 63 % 1027,6 hPa 0,0 l/m 0 min 0 min 0 W/m 6,3 km/h (2 Bft)
20.04.2015 22:00 13,4 C 9,4 C 63 % 1027,7 hPa 0,0 l/m 0 min 0 min 0 W/m 6,3 km/h (2 Bft)
20.04.2015 22:02 13,3 C 9,4 C 63 % 1027,6 hPa 0,0 l/m 0 min 0 min 0 W/m 4,2 km/h (1 Bft)
20.04.2015 22:04 13,2 C 9,4 C 63 % 1027,6 hPa 0,0 l/m 0 min 0 min 0 W/m 6,3 km/h (2 Bft)
20.04.2015 22:06 13,2 C 9,4 C 64 % 1027,6 hPa 0,0 l/m 0 min 0 min 0 W/m 6,3 km/h (2 Bft)
20.04.2015 22:08 13,1 C 9,4 C 64 % 1027,7 hPa 0,0 l/m 0 min 0 min 0 W/m 4,2 km/h (1 Bft)
20.04.2015 22:10 13,0 C 8,9 C 64 % 1027,6 hPa 0,0 l/m 0 min 0 min 0 W/m 6,3 km/h (2 Bft)
20.04.2015 22:12 12,9 C 8,9 C 64 % 1027,7 hPa 0,0 l/m 0 min 0 min 0 W/m 4,2 km/h (1 Bft)
20.04.2015 22:14 12,9 C 8,9 C 65 % 1027,7 hPa 0,0 l/m 0 min 0 min 0 W/m 8,4 km/h (2 Bft)
20.04.2015 22:16 12,8 C 8,9 C 65 % 1027,8 hPa 0,0 l/m 0 min 0 min 0 W/m 6,3 km/h (2 Bft)
20.04.2015 22:18 12,7 C 9,4 C 65 % 1027,8 hPa 0,0 l/m 0 min 0 min 0 W/m 6,3 km/h (2 Bft)
20.04.2015 22:20 12,7 C 9,4 C 65 % 1027,7 hPa 0,0 l/m 0 min 0 min 0 W/m 6,3 km/h (2 Bft)
20.04.2015 22:22 12,6 C 9,4 C 65 % 1027,7 hPa 0,0 l/m 0 min 0 min 0 W/m 6,3 km/h (2 Bft)
20.04.2015 22:24 12,6 C 9,4 C 66 % 1027,8 hPa 0,0 l/m 0 min 0 min 0 W/m 4,2 km/h (1 Bft)
20.04.2015 22:26 12,5 C 8,9 C 66 % 1027,8 hPa 0,0 l/m 0 min 0 min 0 W/m 10,5 km/h (2 Bft)
20.04.2015 22:28 12,4 C 8,9 C 66 % 1027,8 hPa 0,0 l/m 0 min 0 min 0 W/m 6,3 km/h (2 Bft)
20.04.2015 22:30 12,4 C 9,4 C 66 % 1027,8 hPa 0,0 l/m 0 min 0 min 0 W/m 6,3 km/h (2 Bft)
20.04.2015 22:32 12,4 C 9,4 C 66 % 1027,8 hPa 0,0 l/m 0 min 0 min 0 W/m 6,3 km/h (2 Bft)
20.04.2015 22:34 12,3 C 9,4 C 66 % 1027,9 hPa 0,0 l/m 0 min 0 min 0 W/m 4,2 km/h (1 Bft)
20.04.2015 22:36 12,3 C 9,4 C 66 % 1027,9 hPa 0,0 l/m 0 min 0 min 0 W/m 4,2 km/h (1 Bft)
20.04.2015 22:38 12,3 C 8,9 C 66 % 1027,9 hPa 0,0 l/m 0 min 0 min 0 W/m 6,3 km/h (2 Bft)
20.04.2015 22:40 12,3 C 8,9 C 66 % 1027,9 hPa 0,0 l/m 0 min 0 min 0 W/m 6,3 km/h (2 Bft)
20.04.2015 22:42 12,3 C 8,9 C 66 % 1027,8 hPa 0,0 l/m 0 min 0 min 0 W/m 6,3 km/h (2 Bft)
20.04.2015 22:44 12,2 C 8,9 C 67 % 1027,8 hPa 0,0 l/m 0 min 0 min 0 W/m 6,3 km/h (2 Bft)
20.04.2015 22:46 12,2 C 8,9 C 67 % 1027,8 hPa 0,0 l/m 0 min 0 min 0 W/m 6,3 km/h (2 Bft)
20.04.2015 22:48 12,2 C 8,9 C 67 % 1027,9 hPa 0,0 l/m 0 min 0 min 0 W/m 6,3 km/h (2 Bft)
20.04.2015 22:50 12,2 C 8,9 C 67 % 1027,9 hPa 0,0 l/m 0 min 0 min 0 W/m 8,4 km/h (2 Bft)
20.04.2015 22:52 12,1 C 8,9 C 67 % 1027,9 hPa 0,0 l/m 0 min 0 min 0 W/m 10,5 km/h (2 Bft)
20.04.2015 22:54 12,1 C 9,4 C 67 % 1027,9 hPa 0,0 l/m 0 min 0 min 0 W/m 8,4 km/h (2 Bft)
20.04.2015 22:56 12,1 C 9,4 C 67 % 1027,9 hPa 0,0 l/m 0 min 0 min 0 W/m 8,4 km/h (2 Bft)
20.04.2015 22:58 12,1 C 10,0 C 67 % 1027,9 hPa 0,0 l/m 0 min 0 min 0 W/m 8,4 km/h (2 Bft)
20.04.2015 23:00 12,1 C 10,0 C 67 % 1027,9 hPa 0,0 l/m 0 min 0 min 0 W/m 8,4 km/h (2 Bft)
20.04.2015 23:02 12,1 C 10,0 C 67 % 1027,9 hPa 0,0 l/m 0 min 0 min 0 W/m 8,4 km/h (2 Bft)
20.04.2015 23:04 12,1 C 10,0 C 66 % 1027,9 hPa 0,0 l/m 0 min 0 min 0 W/m 8,4 km/h (2 Bft)
20.04.2015 23:06 12,1 C 10,0 C 66 % 1028,0 hPa 0,0 l/m 0 min 0 min 0 W/m 10,5 km/h (2 Bft)
20.04.2015 23:08 12,1 C 10,0 C 66 % 1027,9 hPa 0,0 l/m 0 min 0 min 0 W/m 8,4 km/h (2 Bft)
20.04.2015 23:10 12,1 C 10,0 C 66 % 1028,0 hPa 0,0 l/m 0 min 0 min 0 W/m 8,4 km/h (2 Bft)
20.04.2015 23:12 12,1 C 10,0 C 66 % 1028,0 hPa 0,0 l/m 0 min 0 min 0 W/m 8,4 km/h (2 Bft)
20.04.2015 23:14 12,1 C 10,0 C 66 % 1027,9 hPa 0,0 l/m 0 min 0 min 0 W/m 8,4 km/h (2 Bft)
20.04.2015 23:16 12,1 C 10,0 C 66 % 1027,9 hPa 0,0 l/m 0 min 0 min 0 W/m 8,4 km/h (2 Bft)
20.04.2015 23:18 12,1 C 10,0 C 65 % 1027,9 hPa 0,0 l/m 0 min 0 min 0 W/m 8,4 km/h (2 Bft)
20.04.2015 23:20 12,1 C 10,0 C 65 % 1027,9 hPa 0,0 l/m 0 min 0 min 0 W/m 8,4 km/h (2 Bft)
20.04.2015 23:22 12,1 C 10,0 C 65 % 1027,9 hPa 0,0 l/m 0 min 0 min 0 W/m 8,4 km/h (2 Bft)
20.04.2015 23:24 12,1 C 10,0 C 65 % 1027,9 hPa 0,0 l/m 0 min 0 min 0 W/m 8,4 km/h (2 Bft)
20.04.2015 23:26 12,1 C 10,0 C 65 % 1028,0 hPa 0,0 l/m 0 min 0 min 0 W/m 10,5 km/h (2 Bft)
20.04.2015 23:28 12,1 C 10,0 C 65 % 1028,0 hPa 0,0 l/m 0 min 0 min 0 W/m 12,6 km/h (3 Bft)
20.04.2015 23:30 12,1 C 10,0 C 65 % 1028,0 hPa 0,0 l/m 0 min 0 min 0 W/m 10,5 km/h (2 Bft)
20.04.2015 23:32 12,1 C 10,0 C 64 % 1028,0 hPa 0,0 l/m 0 min 0 min 0 W/m 10,5 km/h (2 Bft)
20.04.2015 23:34 12,1 C 10,0 C 64 % 1027,9 hPa 0,0 l/m 0 min 0 min 0 W/m 8,4 km/h (2 Bft)
20.04.2015 23:36 12,1 C 10,0 C 63 % 1028,0 hPa 0,0 l/m 0 min 0 min 0 W/m 8,4 km/h (2 Bft)
20.04.2015 23:38 12,1 C 10,0 C 63 % 1028,0 hPa 0,0 l/m 0 min 0 min 0 W/m 10,5 km/h (2 Bft)
20.04.2015 23:40 12,1 C 10,0 C 63 % 1028,0 hPa 0,0 l/m 0 min 0 min 0 W/m 10,5 km/h (2 Bft)
20.04.2015 23:42 12,1 C 10,0 C 63 % 1028,0 hPa 0,0 l/m 0 min 0 min 0 W/m 10,5 km/h (2 Bft)
20.04.2015 23:44 12,1 C 10,0 C 63 % 1028,0 hPa 0,0 l/m 0 min 0 min 0 W/m 10,5 km/h (2 Bft)
20.04.2015 23:46 12,1 C 10,0 C 63 % 1028,0 hPa 0,0 l/m 0 min 0 min 0 W/m 10,5 km/h (2 Bft)
20.04.2015 23:48 12,1 C 10,0 C 63 % 1027,9 hPa 0,0 l/m 0 min 0 min 0 W/m 8,4 km/h (2 Bft)
20.04.2015 23:50 12,1 C 10,0 C 62 % 1027,9 hPa 0,0 l/m 0 min 0 min 0 W/m 8,4 km/h (2 Bft)
20.04.2015 23:52 12,0 C 10,0 C 62 % 1027,9 hPa 0,0 l/m 0 min 0 min 0 W/m 8,4 km/h (2 Bft)
20.04.2015 23:54 12,0 C 9,4 C 62 % 1027,9 hPa 0,0 l/m 0 min 0 min 0 W/m 8,4 km/h (2 Bft)
20.04.2015 23:56 12,0 C 9,4 C 62 % 1027,9 hPa 0,0 l/m 0 min 0 min 0 W/m 8,4 km/h (2 Bft)
20.04.2015 23:58 12,0 C 9,4 C 62 % 1027,9 hPa 0,0 l/m 0 min 0 min 0 W/m 8,4 km/h (2 Bft)
_ Min-Zeit 07:04 05:58 16:58 00:00 - - - - 03:36
Minimum _ 3,2 C 1,7 C 40 % 1023,3 hPa - - - - 0,0 km/h (0 Bft)
_ Max-Zeit 15:48 15:34 08:38 23:06 00:00 06:46 00:00 13:16 14:18
Maximum _ 19,8 C 26,1 C 93 % 1028,0 hPa 0,0 l/m 2 min 0 min 804 W/m 37,7 km/h
N (5 Bft)
Durchschnitt _ 12,2 C 10,8 C 64 % 1026,1 hPa #0,0 l/m #12:04 h #0 min. 429 W/m 12,3 km/h (3 Bft)
© 2015 W. Hausmann